Wetterdaten: Mittwoch, 21.05.2014
Datum Zeit Temp. Aussen +5cm Feuchte Auss Luftdruck Regen Sonnenschein Regendauer UV Solar Windben
21.05.2014 00:00 19,9 C 16,7 C 71 % 1010,3 hPa 0,0 l/m 0 min 0 min 0,0 UV-I 0 W/m 0,0 km/h (0 Bft)
21.05.2014 00:02 19,9 C 16,7 C 70 % 1010,3 hPa 0,0 l/m 0 min 0 min 0,0 UV-I 0 W/m 0,0 km/h (0 Bft)
21.05.2014 00:06 19,9 C 16,7 C 71 % 1010,3 hPa 0,0 l/m 0 min 0 min 0,0 UV-I 0 W/m 0,0 km/h (0 Bft)
21.05.2014 00:08 19,8 C 16,7 C 71 % 1010,3 hPa 0,0 l/m 0 min 0 min 0,0 UV-I 0 W/m 0,0 km/h (0 Bft)
21.05.2014 00:10 19,8 C 16,7 C 71 % 1010,3 hPa 0,0 l/m 0 min 0 min 0,0 UV-I 0 W/m 0,0 km/h (0 Bft)
21.05.2014 00:12 19,8 C 16,7 C 71 % 1010,4 hPa 0,0 l/m 0 min 0 min 0,0 UV-I 0 W/m 0,0 km/h (0 Bft)
21.05.2014 00:14 19,8 C 16,7 C 71 % 1010,4 hPa 0,0 l/m 0 min 0 min 0,0 UV-I 0 W/m 0,0 km/h (0 Bft)
21.05.2014 00:16 19,8 C 16,7 C 72 % 1010,4 hPa 0,0 l/m 0 min 0 min 0,0 UV-I 0 W/m 0,0 km/h (0 Bft)
21.05.2014 00:18 19,8 C 16,7 C 72 % 1010,4 hPa 0,0 l/m 0 min 0 min 0,0 UV-I 0 W/m 0,0 km/h (0 Bft)
21.05.2014 00:20 19,7 C 16,7 C 72 % 1010,5 hPa 0,0 l/m 0 min 0 min 0,0 UV-I 0 W/m 0,0 km/h (0 Bft)
21.05.2014 00:22 19,7 C 16,7 C 72 % 1010,4 hPa 0,0 l/m 0 min 0 min 0,0 UV-I 0 W/m 0,0 km/h (0 Bft)
21.05.2014 00:24 19,7 C 16,7 C 73 % 1010,4 hPa 0,0 l/m 0 min 0 min 0,0 UV-I 0 W/m 0,0 km/h (0 Bft)
21.05.2014 00:26 19,7 C 16,7 C 73 % 1010,4 hPa 0,0 l/m 0 min 0 min 0,0 UV-I 0 W/m 0,0 km/h (0 Bft)
21.05.2014 00:28 19,7 C 16,7 C 73 % 1010,5 hPa 0,0 l/m 0 min 0 min 0,0 UV-I 0 W/m 0,0 km/h (0 Bft)
21.05.2014 00:30 19,7 C 16,7 C 73 % 1010,5 hPa 0,0 l/m 0 min 0 min 0,0 UV-I 0 W/m 0,0 km/h (0 Bft)
21.05.2014 00:32 19,7 C 16,7 C 73 % 1010,5 hPa 0,0 l/m 0 min 0 min 0,0 UV-I 0 W/m 0,0 km/h (0 Bft)
21.05.2014 00:34 19,7 C 16,7 C 73 % 1010,5 hPa 0,0 l/m 0 min 0 min 0,0 UV-I 0 W/m 0,0 km/h (0 Bft)
21.05.2014 00:36 19,7 C 16,7 C 73 % 1010,5 hPa 0,0 l/m 0 min 0 min 0,0 UV-I 0 W/m 0,0 km/h (0 Bft)
21.05.2014 00:38 19,6 C 16,7 C 73 % 1010,4 hPa 0,0 l/m 0 min 0 min 0,0 UV-I 0 W/m 0,0 km/h (0 Bft)
21.05.2014 00:40 19,6 C 16,7 C 73 % 1010,3 hPa 0,0 l/m 0 min 0 min 0,0 UV-I 0 W/m 0,0 km/h (0 Bft)
21.05.2014 00:42 19,5 C 16,7 C 73 % 1010,3 hPa 0,0 l/m 0 min 0 min 0,0 UV-I 0 W/m 0,0 km/h (0 Bft)
21.05.2014 00:44 19,5 C 16,7 C 73 % 1010,3 hPa 0,0 l/m 0 min 0 min 0,0 UV-I 0 W/m 0,0 km/h (0 Bft)
21.05.2014 00:46 19,4 C 16,7 C 73 % 1010,3 hPa 0,0 l/m 0 min 0 min 0,0 UV-I 0 W/m 0,0 km/h (0 Bft)
21.05.2014 00:48 19,4 C 16,7 C 74 % 1010,3 hPa 0,0 l/m 0 min 0 min 0,0 UV-I 0 W/m 0,0 km/h (0 Bft)
21.05.2014 00:50 19,3 C 16,7 C 74 % 1010,4 hPa 0,0 l/m 0 min 0 min 0,0 UV-I 0 W/m 0,0 km/h (0 Bft)
21.05.2014 00:52 19,3 C 16,7 C 74 % 1010,4 hPa 0,0 l/m 0 min 0 min 0,0 UV-I 0 W/m 0,0 km/h (0 Bft)
21.05.2014 00:54 19,4 C 16,7 C 73 % 1010,4 hPa 0,0 l/m 0 min 0 min 0,0 UV-I 0 W/m 0,0 km/h (0 Bft)
21.05.2014 00:56 19,4 C 16,7 C 73 % 1010,4 hPa 0,0 l/m 0 min 0 min 0,0 UV-I 0 W/m 0,0 km/h (0 Bft)
21.05.2014 00:58 19,4 C 16,7 C 74 % 1010,4 hPa 0,0 l/m 0 min 0 min 0,0 UV-I 0 W/m 0,0 km/h (0 Bft)
21.05.2014 01:00 19,4 C 16,7 C 73 % 1010,4 hPa 0,0 l/m 0 min 0 min 0,0 UV-I 0 W/m 0,0 km/h (0 Bft)
21.05.2014 01:02 19,4 C 16,7 C 73 % 1010,4 hPa 0,0 l/m 0 min 0 min 0,0 UV-I 0 W/m 0,0 km/h (0 Bft)
21.05.2014 01:06 19,4 C 16,7 C 72 % 1010,5 hPa 0,0 l/m 0 min 0 min 0,0 UV-I 0 W/m 0,0 km/h (0 Bft)
21.05.2014 01:08 19,4 C 16,7 C 72 % 1010,5 hPa 0,0 l/m 0 min 0 min 0,0 UV-I 0 W/m 0,0 km/h (0 Bft)
21.05.2014 01:10 19,5 C 16,7 C 72 % 1010,5 hPa 0,0 l/m 0 min 0 min 0,0 UV-I 0 W/m 0,0 km/h (0 Bft)
21.05.2014 01:12 19,5 C 16,7 C 71 % 1010,5 hPa 0,0 l/m 0 min 0 min 0,0 UV-I 0 W/m 0,0 km/h (0 Bft)
21.05.2014 01:14 19,5 C 16,7 C 71 % 1010,6 hPa 0,0 l/m 0 min 0 min 0,0 UV-I 0 W/m 0,0 km/h (0 Bft)
21.05.2014 01:16 19,5 C 16,7 C 71 % 1010,6 hPa 0,0 l/m 0 min 0 min 0,0 UV-I 0 W/m 0,0 km/h (0 Bft)
21.05.2014 01:18 19,5 C 16,7 C 71 % 1010,6 hPa 0,0 l/m 0 min 0 min 0,0 UV-I 0 W/m 0,0 km/h (0 Bft)
21.05.2014 01:20 19,5 C 16,7 C 71 % 1010,7 hPa 0,0 l/m 0 min 0 min 0,0 UV-I 0 W/m 0,0 km/h (0 Bft)
21.05.2014 01:22 19,4 C 16,7 C 72 % 1010,9 hPa 0,0 l/m 0 min 0 min 0,0 UV-I 0 W/m 0,0 km/h (0 Bft)
21.05.2014 01:24 19,4 C 16,7 C 72 % 1011,1 hPa 0,0 l/m 0 min 0 min 0,0 UV-I 0 W/m 2,6 km/h (1 Bft)
21.05.2014 01:26 19,4 C 16,7 C 71 % 1011,1 hPa 0,0 l/m 0 min 0 min 0,0 UV-I 0 W/m 12,9 km/h (3 Bft)
21.05.2014 01:28 19,6 C 17,2 C 70 % 1011,2 hPa 0,0 l/m 0 min 0 min 0,0 UV-I 0 W/m 10,3 km/h (2 Bft)
21.05.2014 01:30 19,8 C 17,8 C 69 % 1011,2 hPa 0,0 l/m 0 min 0 min 0,0 UV-I 0 W/m 15,4 km/h (3 Bft)
21.05.2014 01:32 19,9 C 17,8 C 68 % 1011,2 hPa 0,0 l/m 0 min 0 min 0,0 UV-I 0 W/m 18,0 km/h (3 Bft)
21.05.2014 01:34 20,1 C 17,8 C 69 % 1011,3 hPa 0,0 l/m 0 min 0 min 0,0 UV-I 0 W/m 20,6 km/h (4 Bft)
21.05.2014 01:36 20,1 C 17,8 C 69 % 1011,3 hPa 0,0 l/m 0 min 0 min 0,0 UV-I 0 W/m 12,9 km/h (3 Bft)
21.05.2014 01:38 20,0 C 17,8 C 69 % 1011,3 hPa 0,0 l/m 0 min 0 min 0,0 UV-I 0 W/m 10,3 km/h (2 Bft)
21.05.2014 01:40 19,9 C 17,8 C 69 % 1011,3 hPa 0,0 l/m 0 min 0 min 0,0 UV-I 0 W/m 10,3 km/h (2 Bft)
21.05.2014 01:42 19,9 C 17,8 C 70 % 1011,3 hPa 0,0 l/m 0 min 0 min 0,0 UV-I 0 W/m 7,7 km/h (2 Bft)
21.05.2014 01:44 19,8 C 17,8 C 70 % 1011,4 hPa 0,0 l/m 0 min 0 min 0,0 UV-I 0 W/m 0,0 km/h (0 Bft)
21.05.2014 01:46 19,7 C 17,2 C 71 % 1011,3 hPa 0,0 l/m 0 min 0 min 0,0 UV-I 0 W/m 0,0 km/h (0 Bft)
21.05.2014 01:48 19,6 C 17,2 C 71 % 1011,3 hPa 0,0 l/m 0 min 0 min 0,0 UV-I 0 W/m 10,3 km/h (2 Bft)
21.05.2014 01:50 19,5 C 17,2 C 71 % 1011,4 hPa 0,0 l/m 0 min 0 min 0,0 UV-I 0 W/m 10,3 km/h (2 Bft)
21.05.2014 01:52 19,4 C 17,2 C 72 % 1011,4 hPa 0,0 l/m 0 min 0 min 0,0 UV-I 0 W/m 7,7 km/h (2 Bft)
21.05.2014 01:54 19,3 C 17,2 C 72 % 1011,4 hPa 0,0 l/m 0 min 0 min 0,0 UV-I 0 W/m 0,0 km/h (0 Bft)
21.05.2014 01:56 19,2 C 17,2 C 73 % 1011,4 hPa 0,0 l/m 0 min 0 min 0,0 UV-I 0 W/m 0,0 km/h (0 Bft)
21.05.2014 01:58 19,2 C 16,7 C 73 % 1011,4 hPa 0,0 l/m 0 min 0 min 0,0 UV-I 0 W/m 2,6 km/h (1 Bft)
21.05.2014 02:00 19,1 C 16,7 C 73 % 1011,4 hPa 0,0 l/m 0 min 0 min 0,0 UV-I 0 W/m 0,0 km/h (0 Bft)
21.05.2014 02:02 19,0 C 16,7 C 73 % 1011,4 hPa 0,0 l/m 0 min 0 min 0,0 UV-I 0 W/m 12,9 km/h (3 Bft)
21.05.2014 02:06 18,9 C 16,7 C 74 % 1011,4 hPa 0,0 l/m 0 min 0 min 0,0 UV-I 0 W/m 0,0 km/h (0 Bft)
21.05.2014 02:08 18,8 C 16,7 C 74 % 1011,4 hPa 0,0 l/m 0 min 0 min 0,0 UV-I 0 W/m 0,0 km/h (0 Bft)
21.05.2014 02:10 18,7 C 16,7 C 75 % 1011,4 hPa 0,0 l/m 0 min 0 min 0,0 UV-I 0 W/m 0,0 km/h (0 Bft)
21.05.2014 02:12 18,6 C 16,7 C 75 % 1011,4 hPa 0,0 l/m 0 min 0 min 0,0 UV-I 0 W/m 2,6 km/h (1 Bft)
21.05.2014 02:14 18,5 C 16,7 C 75 % 1011,4 hPa 0,0 l/m 0 min 0 min 0,0 UV-I 0 W/m 12,9 km/h (3 Bft)
21.05.2014 02:16 18,4 C 16,7 C 75 % 1011,5 hPa 0,0 l/m 0 min 0 min 0,0 UV-I 0 W/m 7,7 km/h (2 Bft)
21.05.2014 02:18 18,4 C 16,7 C 75 % 1011,5 hPa 0,0 l/m 0 min 0 min 0,0 UV-I 0 W/m 10,3 km/h (2 Bft)
21.05.2014 02:20 18,3 C 16,1 C 75 % 1011,5 hPa 0,0 l/m 0 min 0 min 0,0 UV-I 0 W/m 0,0 km/h (0 Bft)
21.05.2014 02:22 18,3 C 16,1 C 75 % 1011,5 hPa 0,0 l/m 0 min 0 min 0,0 UV-I 0 W/m 10,3 km/h (2 Bft)
21.05.2014 02:24 18,2 C 16,1 C 75 % 1011,5 hPa 0,0 l/m 0 min 0 min 0,0 UV-I 0 W/m 10,3 km/h (2 Bft)
21.05.2014 02:26 18,2 C 16,1 C 75 % 1011,5 hPa 0,0 l/m 0 min 0 min 0,0 UV-I 0 W/m 12,9 km/h (3 Bft)
21.05.2014 02:28 18,2 C 16,1 C 76 % 1011,5 hPa 0,0 l/m 0 min 0 min 0,0 UV-I 0 W/m 2,6 km/h (1 Bft)
21.05.2014 02:30 18,1 C 16,1 C 76 % 1011,5 hPa 0,0 l/m 0 min 0 min 0,0 UV-I 0 W/m 10,3 km/h (2 Bft)
21.05.2014 02:32 18,1 C 16,1 C 76 % 1011,5 hPa 0,0 l/m 0 min 0 min 0,0 UV-I 0 W/m 12,9 km/h (3 Bft)
21.05.2014 02:34 18,0 C 16,1 C 76 % 1011,5 hPa 0,0 l/m 0 min 0 min 0,0 UV-I 0 W/m 7,7 km/h (2 Bft)
21.05.2014 02:36 17,9 C 16,1 C 76 % 1011,5 hPa 0,0 l/m 0 min 0 min 0,0 UV-I 0 W/m 0,0 km/h (0 Bft)
21.05.2014 02:38 17,9 C 16,1 C 77 % 1011,5 hPa 0,0 l/m 0 min 0 min 0,0 UV-I 0 W/m 0,0 km/h (0 Bft)
21.05.2014 02:40 17,8 C 16,1 C 77 % 1011,5 hPa 0,0 l/m 0 min 0 min 0,0 UV-I 0 W/m 5,1 km/h (1 Bft)
21.05.2014 02:42 17,7 C 16,1 C 77 % 1011,4 hPa 0,0 l/m 0 min 0 min 0,0 UV-I 0 W/m 0,0 km/h (0 Bft)
21.05.2014 02:44 17,6 C 16,1 C 77 % 1011,4 hPa 0,0 l/m 0 min 0 min 0,0 UV-I 0 W/m 7,7 km/h (2 Bft)
21.05.2014 02:46 17,6 C 16,1 C 77 % 1011,4 hPa 0,0 l/m 0 min 0 min 0,0 UV-I 0 W/m 7,7 km/h (2 Bft)
21.05.2014 02:48 17,5 C 15,6 C 77 % 1011,4 hPa 0,0 l/m 0 min 0 min 0,0 UV-I 0 W/m 10,3 km/h (2 Bft)
21.05.2014 02:50 17,4 C 15,6 C 77 % 1011,5 hPa 0,0 l/m 0 min 0 min 0,0 UV-I 0 W/m 2,6 km/h (1 Bft)
21.05.2014 02:52 17,4 C 15,6 C 78 % 1011,6 hPa 0,0 l/m 0 min 0 min 0,0 UV-I 0 W/m 0,0 km/h (0 Bft)
21.05.2014 02:54 17,3 C 15,6 C 78 % 1011,6 hPa 0,0 l/m 0 min 0 min 0,0 UV-I 0 W/m 0,0 km/h (0 Bft)
21.05.2014 02:56 17,2 C 15,6 C 78 % 1011,6 hPa 0,0 l/m 0 min 0 min 0,0 UV-I 0 W/m 0,0 km/h (0 Bft)
21.05.2014 02:58 17,1 C 15,6 C 79 % 1011,7 hPa 0,0 l/m 0 min 0 min 0,0 UV-I 0 W/m 0,0 km/h (0 Bft)
21.05.2014 03:00 17,1 C 15,6 C 79 % 1011,6 hPa 0,0 l/m 0 min 0 min 0,0 UV-I 0 W/m 7,7 km/h (2 Bft)
21.05.2014 03:02 17,0 C 15,6 C 79 % 1011,7 hPa 0,0 l/m 0 min 0 min 0,0 UV-I 0 W/m 0,0 km/h (0 Bft)
21.05.2014 03:06 16,9 C 15,0 C 80 % 1011,7 hPa 0,0 l/m 0 min 0 min 0,0 UV-I 0 W/m 0,0 km/h (0 Bft)
21.05.2014 03:08 16,8 C 15,0 C 80 % 1011,7 hPa 0,0 l/m 0 min 0 min 0,0 UV-I 0 W/m 2,6 km/h (1 Bft)
21.05.2014 03:10 16,8 C 15,0 C 80 % 1011,7 hPa 0,0 l/m 0 min 0 min 0,0 UV-I 0 W/m 0,0 km/h (0 Bft)
21.05.2014 03:12 16,7 C 15,0 C 80 % 1011,8 hPa 0,0 l/m 0 min 0 min 0,0 UV-I 0 W/m 0,0 km/h (0 Bft)
21.05.2014 03:14 16,7 C 15,0 C 80 % 1011,7 hPa 0,0 l/m 0 min 0 min 0,0 UV-I 0 W/m 0,0 km/h (0 Bft)
21.05.2014 03:16 16,7 C 15,0 C 80 % 1011,7 hPa 0,0 l/m 0 min 0 min 0,0 UV-I 0 W/m 0,0 km/h (0 Bft)
21.05.2014 03:18 16,6 C 15,0 C 81 % 1011,7 hPa 0,0 l/m 0 min 0 min 0,0 UV-I 0 W/m 0,0 km/h (0 Bft)
21.05.2014 03:20 16,5 C 14,4 C 81 % 1011,7 hPa 0,0 l/m 0 min 0 min 0,0 UV-I 0 W/m 0,0 km/h (0 Bft)
21.05.2014 03:22 16,4 C 14,4 C 81 % 1011,8 hPa 0,0 l/m 0 min 0 min 0,0 UV-I 0 W/m 0,0 km/h (0 Bft)
21.05.2014 03:24 16,4 C 14,4 C 81 % 1011,8 hPa 0,0 l/m 0 min 0 min 0,0 UV-I 0 W/m 0,0 km/h (0 Bft)
21.05.2014 03:26 16,3 C 14,4 C 82 % 1011,8 hPa 0,0 l/m 0 min 0 min 0,0 UV-I 0 W/m 0,0 km/h (0 Bft)
21.05.2014 03:28 16,3 C 14,4 C 82 % 1011,8 hPa 0,0 l/m 0 min 0 min 0,0 UV-I 0 W/m 0,0 km/h (0 Bft)
21.05.2014 03:30 16,2 C 14,4 C 82 % 1011,8 hPa 0,0 l/m 0 min 0 min 0,0 UV-I 0 W/m 0,0 km/h (0 Bft)
21.05.2014 03:32 16,2 C 14,4 C 82 % 1011,9 hPa 0,0 l/m 0 min 0 min 0,0 UV-I 0 W/m 0,0 km/h (0 Bft)
21.05.2014 03:34 16,2 C 14,4 C 82 % 1011,8 hPa 0,0 l/m 0 min 0 min 0,0 UV-I 0 W/m 0,0 km/h (0 Bft)
21.05.2014 03:36 16,3 C 14,4 C 82 % 1011,7 hPa 0,0 l/m 0 min 0 min 0,0 UV-I 0 W/m 0,0 km/h (0 Bft)
21.05.2014 03:38 16,3 C 14,4 C 82 % 1011,7 hPa 0,0 l/m 0 min 0 min 0,0 UV-I 0 W/m 0,0 km/h (0 Bft)
21.05.2014 03:40 16,2 C 14,4 C 82 % 1011,8 hPa 0,0 l/m 0 min 0 min 0,0 UV-I 0 W/m 0,0 km/h (0 Bft)
21.05.2014 03:42 16,1 C 13,9 C 83 % 1011,7 hPa 0,0 l/m 0 min 0 min 0,0 UV-I 0 W/m 0,0 km/h (0 Bft)
21.05.2014 03:44 16,1 C 13,9 C 83 % 1011,7 hPa 0,0 l/m 0 min 0 min 0,0 UV-I 0 W/m 0,0 km/h (0 Bft)
21.05.2014 03:46 16,1 C 13,9 C 83 % 1011,7 hPa 0,0 l/m 0 min 0 min 0,0 UV-I 0 W/m 0,0 km/h (0 Bft)
21.05.2014 03:48 15,9 C 13,9 C 83 % 1011,8 hPa 0,0 l/m 0 min 0 min 0,0 UV-I 0 W/m 0,0 km/h (0 Bft)
21.05.2014 03:50 15,9 C 13,9 C 83 % 1011,7 hPa 0,0 l/m 0 min 0 min 0,0 UV-I 0 W/m 0,0 km/h (0 Bft)
21.05.2014 03:52 15,9 C 13,9 C 84 % 1011,7 hPa 0,0 l/m 0 min 0 min 0,0 UV-I 0 W/m 0,0 km/h (0 Bft)
21.05.2014 03:54 15,9 C 13,9 C 84 % 1011,8 hPa 0,0 l/m 0 min 0 min 0,0 UV-I 0 W/m 0,0 km/h (0 Bft)
21.05.2014 03:56 15,8 C 13,9 C 84 % 1011,9 hPa 0,0 l/m 0 min 0 min 0,0 UV-I 0 W/m 0,0 km/h (0 Bft)
21.05.2014 03:58 15,8 C 13,9 C 84 % 1012,0 hPa 0,0 l/m 0 min 0 min 0,0 UV-I 0 W/m 0,0 km/h (0 Bft)
21.05.2014 04:00 15,7 C 13,9 C 85 % 1012,0 hPa 0,0 l/m 0 min 0 min 0,0 UV-I 0 W/m 0,0 km/h (0 Bft)
21.05.2014 04:02 15,7 C 13,9 C 85 % 1012,0 hPa 0,0 l/m 0 min 0 min 0,0 UV-I 0 W/m 0,0 km/h (0 Bft)
21.05.2014 04:06 15,6 C 13,9 C 85 % 1012,0 hPa 0,0 l/m 0 min 0 min 0,0 UV-I 0 W/m 0,0 km/h (0 Bft)
21.05.2014 04:08 15,6 C 13,9 C 85 % 1011,9 hPa 0,0 l/m 0 min 0 min 0,0 UV-I 0 W/m 0,0 km/h (0 Bft)
21.05.2014 04:10 15,6 C 13,9 C 85 % 1012,0 hPa 0,0 l/m 0 min 0 min 0,0 UV-I 0 W/m 0,0 km/h (0 Bft)
21.05.2014 04:12 15,6 C 13,9 C 85 % 1012,0 hPa 0,0 l/m 0 min 0 min 0,0 UV-I 0 W/m 0,0 km/h (0 Bft)
21.05.2014 04:14 15,4 C 13,9 C 86 % 1012,0 hPa 0,0 l/m 0 min 0 min 0,0 UV-I 0 W/m 0,0 km/h (0 Bft)
21.05.2014 04:16 15,4 C 13,9 C 86 % 1012,1 hPa 0,0 l/m 0 min 0 min 0,0 UV-I 0 W/m 0,0 km/h (0 Bft)
21.05.2014 04:18 15,4 C 13,9 C 86 % 1012,1 hPa 0,0 l/m 0 min 0 min 0,0 UV-I 0 W/m 0,0 km/h (0 Bft)
21.05.2014 04:20 15,4 C 13,9 C 87 % 1012,1 hPa 0,0 l/m 0 min 0 min 0,0 UV-I 0 W/m 0,0 km/h (0 Bft)
21.05.2014 04:22 15,3 C 13,9 C 87 % 1012,1 hPa 0,0 l/m 0 min 0 min 0,0 UV-I 0 W/m 0,0 km/h (0 Bft)
21.05.2014 04:24 15,3 C 13,9 C 87 % 1012,1 hPa 0,0 l/m 0 min 0 min 0,0 UV-I 0 W/m 0,0 km/h (0 Bft)
21.05.2014 04:26 15,3 C 13,9 C 87 % 1012,1 hPa 0,0 l/m 0 min 0 min 0,0 UV-I 0 W/m 0,0 km/h (0 Bft)
21.05.2014 04:28 15,3 C 13,9 C 87 % 1012,1 hPa 0,0 l/m 0 min 0 min 0,0 UV-I 0 W/m 0,0 km/h (0 Bft)
21.05.2014 04:30 15,3 C 13,9 C 87 % 1012,2 hPa 0,0 l/m 0 min 0 min 0,0 UV-I 0 W/m 0,0 km/h (0 Bft)
21.05.2014 04:32 15,4 C 13,9 C 87 % 1012,2 hPa 0,0 l/m 0 min 0 min 0,0 UV-I 0 W/m 0,0 km/h (0 Bft)
21.05.2014 04:34 15,4 C 13,9 C 87 % 1012,1 hPa 0,0 l/m 0 min 0 min 0,0 UV-I 0 W/m 0,0 km/h (0 Bft)
21.05.2014 04:36 15,4 C 13,9 C 87 % 1012,1 hPa 0,0 l/m 0 min 0 min 0,0 UV-I 0 W/m 0,0 km/h (0 Bft)
21.05.2014 04:38 15,4 C 13,9 C 87 % 1012,1 hPa 0,0 l/m 0 min 0 min 0,0 UV-I 0 W/m 0,0 km/h (0 Bft)
21.05.2014 04:40 15,3 C 13,9 C 87 % 1012,1 hPa 0,0 l/m 0 min 0 min 0,0 UV-I 0 W/m 0,0 km/h (0 Bft)
21.05.2014 04:42 15,3 C 13,9 C 87 % 1012,1 hPa 0,0 l/m 0 min 0 min 0,0 UV-I 0 W/m 0,0 km/h (0 Bft)
21.05.2014 04:44 15,3 C 13,9 C 87 % 1012,1 hPa 0,0 l/m 0 min 0 min 0,0 UV-I 0 W/m 0,0 km/h (0 Bft)
21.05.2014 04:46 15,3 C 13,3 C 87 % 1012,1 hPa 0,0 l/m 0 min 0 min 0,0 UV-I 0 W/m 0,0 km/h (0 Bft)
21.05.2014 04:48 15,2 C 13,3 C 87 % 1012,1 hPa 0,0 l/m 0 min 0 min 0,0 UV-I 0 W/m 0,0 km/h (0 Bft)
21.05.2014 04:50 15,2 C 13,3 C 87 % 1012,1 hPa 0,0 l/m 0 min 0 min 0,0 UV-I 0 W/m 0,0 km/h (0 Bft)
21.05.2014 04:52 15,2 C 13,3 C 87 % 1012,0 hPa 0,0 l/m 0 min 0 min 0,0 UV-I 0 W/m 0,0 km/h (0 Bft)
21.05.2014 04:54 15,2 C 13,3 C 87 % 1012,1 hPa 0,0 l/m 0 min 0 min 0,0 UV-I 0 W/m 0,0 km/h (0 Bft)
21.05.2014 04:56 15,2 C 13,3 C 87 % 1012,1 hPa 0,0 l/m 0 min 0 min 0,0 UV-I 0 W/m 0,0 km/h (0 Bft)
21.05.2014 04:58 15,2 C 13,3 C 87 % 1012,0 hPa 0,0 l/m 0 min 0 min 0,0 UV-I 0 W/m 0,0 km/h (0 Bft)
21.05.2014 05:00 15,2 C 13,3 C 87 % 1012,1 hPa 0,0 l/m 0 min 0 min 0,0 UV-I 0 W/m 0,0 km/h (0 Bft)
21.05.2014 05:02 15,2 C 13,3 C 87 % 1012,1 hPa 0,0 l/m 0 min 0 min 0,0 UV-I 0 W/m 0,0 km/h (0 Bft)
21.05.2014 05:06 15,2 C 13,3 C 87 % 1012,0 hPa 0,0 l/m 0 min 0 min 0,0 UV-I 0 W/m 0,0 km/h (0 Bft)
21.05.2014 05:08 15,2 C 13,3 C 87 % 1012,1 hPa 0,0 l/m 0 min 0 min 0,0 UV-I 0 W/m 0,0 km/h (0 Bft)
21.05.2014 05:10 15,2 C 13,3 C 87 % 1012,1 hPa 0,0 l/m 0 min 0 min 0,0 UV-I 0 W/m 0,0 km/h (0 Bft)
21.05.2014 05:12 15,2 C 13,3 C 87 % 1012,1 hPa 0,0 l/m 0 min 0 min 0,0 UV-I 0 W/m 0,0 km/h (0 Bft)
21.05.2014 05:14 15,2 C 13,3 C 88 % 1012,2 hPa 0,0 l/m 0 min 0 min 0,0 UV-I 0 W/m 0,0 km/h (0 Bft)
21.05.2014 05:16 15,1 C 13,3 C 88 % 1012,2 hPa 0,0 l/m 0 min 0 min 0,0 UV-I 0 W/m 0,0 km/h (0 Bft)
21.05.2014 05:18 15,1 C 13,3 C 88 % 1012,2 hPa 0,0 l/m 0 min 0 min 0,0 UV-I 0 W/m 0,0 km/h (0 Bft)
21.05.2014 05:20 15,1 C 13,3 C 88 % 1012,2 hPa 0,0 l/m 0 min 0 min 0,0 UV-I 0 W/m 0,0 km/h (0 Bft)
21.05.2014 05:22 15,1 C 13,3 C 88 % 1012,2 hPa 0,0 l/m 0 min 0 min 0,0 UV-I 0 W/m 0,0 km/h (0 Bft)
21.05.2014 05:24 15,1 C 13,9 C 89 % 1012,2 hPa 0,0 l/m 0 min 0 min 0,0 UV-I 0 W/m 0,0 km/h (0 Bft)
21.05.2014 05:26 15,1 C 13,9 C 89 % 1012,1 hPa 0,0 l/m 0 min 0 min 0,0 UV-I 0 W/m 0,0 km/h (0 Bft)
21.05.2014 05:28 15,1 C 13,9 C 89 % 1012,0 hPa 0,0 l/m 0 min 0 min 0,0 UV-I 0 W/m 0,0 km/h (0 Bft)
21.05.2014 05:30 15,1 C 13,9 C 88 % 1012,0 hPa 0,0 l/m 0 min 0 min 0,0 UV-I 0 W/m 0,0 km/h (0 Bft)
21.05.2014 05:32 15,1 C 13,9 C 88 % 1012,0 hPa 0,0 l/m 0 min 0 min 0,0 UV-I 0 W/m 0,0 km/h (0 Bft)
21.05.2014 05:34 15,2 C 13,3 C 88 % 1012,0 hPa 0,0 l/m 0 min 0 min 0,0 UV-I 0 W/m 0,0 km/h (0 Bft)
21.05.2014 05:36 15,2 C 13,3 C 88 % 1012,0 hPa 0,0 l/m 0 min 0 min 0,0 UV-I 0 W/m 0,0 km/h (0 Bft)
21.05.2014 05:38 15,2 C 13,3 C 88 % 1012,0 hPa 0,0 l/m 0 min 0 min 0,0 UV-I 0 W/m 0,0 km/h (0 Bft)
21.05.2014 05:40 15,2 C 13,3 C 88 % 1012,1 hPa 0,0 l/m 0 min 0 min 0,0 UV-I 0 W/m 0,0 km/h (0 Bft)
21.05.2014 05:42 15,2 C 13,3 C 88 % 1012,0 hPa 0,0 l/m 0 min 0 min 0,0 UV-I 0 W/m 0,0 km/h (0 Bft)
21.05.2014 05:44 15,2 C 13,3 C 88 % 1012,1 hPa 0,0 l/m 0 min 0 min 0,0 UV-I 5 W/m 0,0 km/h (0 Bft)
21.05.2014 05:46 15,2 C 13,3 C 88 % 1012,0 hPa 0,0 l/m 0 min 0 min 0,0 UV-I 5 W/m 0,0 km/h (0 Bft)
21.05.2014 05:48 15,2 C 13,3 C 88 % 1012,0 hPa 0,0 l/m 0 min 0 min 0,0 UV-I 5 W/m 0,0 km/h (0 Bft)
21.05.2014 05:50 15,2 C 13,3 C 88 % 1012,1 hPa 0,0 l/m 0 min 0 min 0,0 UV-I 7 W/m 0,0 km/h (0 Bft)
21.05.2014 05:52 15,1 C 13,3 C 88 % 1012,1 hPa 0,0 l/m 0 min 0 min 0,0 UV-I 11 W/m 0,0 km/h (0 Bft)
21.05.2014 05:54 15,1 C 13,3 C 88 % 1012,1 hPa 0,0 l/m 0 min 0 min 0,0 UV-I 12 W/m 0,0 km/h (0 Bft)
21.05.2014 05:56 15,1 C 13,3 C 88 % 1012,1 hPa 0,0 l/m 0 min 0 min 0,0 UV-I 16 W/m 0,0 km/h (0 Bft)
21.05.2014 05:58 15,1 C 13,3 C 88 % 1012,1 hPa 0,0 l/m 0 min 0 min 0,0 UV-I 19 W/m 0,0 km/h (0 Bft)
21.05.2014 06:00 15,1 C 13,3 C 88 % 1012,1 hPa 0,0 l/m 0 min 0 min 0,0 UV-I 21 W/m 0,0 km/h (0 Bft)
21.05.2014 06:02 15,1 C 13,3 C 88 % 1012,1 hPa 0,0 l/m 0 min 0 min 0,0 UV-I 23 W/m 0,0 km/h (0 Bft)
21.05.2014 06:06 15,0 C 13,3 C 88 % 1012,1 hPa 0,0 l/m 0 min 0 min 0,0 UV-I 25 W/m 0,0 km/h (0 Bft)
21.05.2014 06:08 15,0 C 13,3 C 88 % 1012,2 hPa 0,0 l/m 0 min 0 min 0,0 UV-I 26 W/m 0,0 km/h (0 Bft)
21.05.2014 06:10 15,0 C 13,3 C 88 % 1012,1 hPa 0,0 l/m 0 min 0 min 0,0 UV-I 26 W/m 0,0 km/h (0 Bft)
21.05.2014 06:12 15,0 C 13,3 C 88 % 1012,2 hPa 0,0 l/m 0 min 0 min 0,0 UV-I 28 W/m 0,0 km/h (0 Bft)
21.05.2014 06:14 15,0 C 13,3 C 88 % 1012,2 hPa 0,0 l/m 0 min 0 min 0,0 UV-I 30 W/m 0,0 km/h (0 Bft)
21.05.2014 06:16 14,9 C 13,3 C 89 % 1012,1 hPa 0,0 l/m 0 min 0 min 0,0 UV-I 33 W/m 0,0 km/h (0 Bft)
21.05.2014 06:18 14,9 C 13,9 C 89 % 1012,1 hPa 0,0 l/m 0 min 0 min 0,0 UV-I 35 W/m 0,0 km/h (0 Bft)
21.05.2014 06:20 14,9 C 13,9 C 89 % 1012,0 hPa 0,0 l/m 0 min 0 min 0,0 UV-I 39 W/m 0,0 km/h (0 Bft)
21.05.2014 06:22 15,0 C 13,9 C 89 % 1012,0 hPa 0,0 l/m 0 min 0 min 0,0 UV-I 39 W/m 0,0 km/h (0 Bft)
21.05.2014 06:24 15,1 C 13,9 C 89 % 1011,9 hPa 0,0 l/m 0 min 0 min 0,0 UV-I 39 W/m 0,0 km/h (0 Bft)
21.05.2014 06:26 15,1 C 13,9 C 89 % 1011,9 hPa 0,0 l/m 0 min 0 min 0,0 UV-I 35 W/m 0,0 km/h (0 Bft)
21.05.2014 06:28 15,1 C 13,3 C 89 % 1012,0 hPa 0,0 l/m 0 min 0 min 0,0 UV-I 35 W/m 0,0 km/h (0 Bft)
21.05.2014 06:30 15,1 C 13,3 C 89 % 1012,1 hPa 0,0 l/m 0 min 0 min 0,0 UV-I 35 W/m 0,0 km/h (0 Bft)
21.05.2014 06:32 15,0 C 13,3 C 89 % 1012,2 hPa 0,0 l/m 0 min 0 min 0,0 UV-I 35 W/m 0,0 km/h (0 Bft)
21.05.2014 06:34 15,0 C 13,3 C 89 % 1012,2 hPa 0,0 l/m 0 min 0 min 0,0 UV-I 37 W/m 0,0 km/h (0 Bft)
21.05.2014 06:36 15,0 C 13,3 C 89 % 1012,2 hPa 0,0 l/m 0 min 0 min 0,0 UV-I 40 W/m 0,0 km/h (0 Bft)
21.05.2014 06:38 15,0 C 13,3 C 89 % 1012,2 hPa 0,0 l/m 0 min 0 min 0,0 UV-I 47 W/m 0,0 km/h (0 Bft)
21.05.2014 06:40 15,1 C 13,3 C 89 % 1012,2 hPa 0,0 l/m 0 min 0 min 0,0 UV-I 54 W/m 0,0 km/h (0 Bft)
21.05.2014 06:42 15,1 C 13,9 C 89 % 1012,3 hPa 0,0 l/m 0 min 0 min 0,0 UV-I 67 W/m 0,0 km/h (0 Bft)
21.05.2014 06:44 15,1 C 13,9 C 89 % 1012,3 hPa 0,0 l/m 0 min 0 min 0,0 UV-I 74 W/m 0,0 km/h (0 Bft)
21.05.2014 06:46 15,2 C 13,9 C 89 % 1012,2 hPa 0,0 l/m 0 min 0 min 0,0 UV-I 79 W/m 0,0 km/h (0 Bft)
21.05.2014 06:48 15,2 C 13,9 C 89 % 1012,2 hPa 0,0 l/m 2 min 0 min 0,0 UV-I 88 W/m 0,0 km/h (0 Bft)
21.05.2014 06:50 15,4 C 14,4 C 89 % 1012,2 hPa 0,0 l/m 2 min 0 min 0,0 UV-I 93 W/m 0,0 km/h (0 Bft)
21.05.2014 06:52 15,5 C 14,4 C 89 % 1012,2 hPa 0,0 l/m 2 min 0 min 0,0 UV-I 98 W/m 0,0 km/h (0 Bft)
21.05.2014 06:54 15,6 C 14,4 C 88 % 1012,3 hPa 0,0 l/m 2 min 0 min 0,0 UV-I 100 W/m 0,0 km/h (0 Bft)
21.05.2014 06:56 15,7 C 15,0 C 88 % 1012,2 hPa 0,0 l/m 2 min 0 min 0,0 UV-I 98 W/m 0,0 km/h (0 Bft)
21.05.2014 06:58 15,8 C 15,0 C 88 % 1012,2 hPa 0,0 l/m 0 min 0 min 0,0 UV-I 95 W/m 0,0 km/h (0 Bft)
21.05.2014 07:00 15,9 C 15,0 C 87 % 1012,2 hPa 0,0 l/m 0 min 0 min 0,0 UV-I 97 W/m 0,0 km/h (0 Bft)
21.05.2014 07:02 16,1 C 15,0 C 87 % 1012,3 hPa 0,0 l/m 0 min 0 min 0,0 UV-I 97 W/m 7,7 km/h (2 Bft)
21.05.2014 07:06 16,2 C 15,0 C 86 % 1012,3 hPa 0,0 l/m 0 min 0 min 0,0 UV-I 84 W/m 5,1 km/h (1 Bft)
21.05.2014 07:08 16,3 C 15,0 C 86 % 1012,2 hPa 0,0 l/m 0 min 0 min 0,0 UV-I 79 W/m 0,0 km/h (0 Bft)
21.05.2014 07:10 16,3 C 15,0 C 86 % 1012,3 hPa 0,0 l/m 0 min 0 min 0,0 UV-I 79 W/m 0,0 km/h (0 Bft)
21.05.2014 07:12 16,4 C 15,6 C 85 % 1012,3 hPa 0,0 l/m 0 min 0 min 0,0 UV-I 83 W/m 0,0 km/h (0 Bft)
21.05.2014 07:14 16,4 C 15,6 C 85 % 1012,3 hPa 0,0 l/m 0 min 0 min 0,0 UV-I 84 W/m 0,0 km/h (0 Bft)
21.05.2014 07:16 16,4 C 15,6 C 85 % 1012,3 hPa 0,0 l/m 0 min 0 min 0,0 UV-I 88 W/m 0,0 km/h (0 Bft)
21.05.2014 07:18 16,4 C 15,6 C 85 % 1012,3 hPa 0,0 l/m 0 min 0 min 0,0 UV-I 93 W/m 2,6 km/h (1 Bft)
21.05.2014 07:20 16,5 C 15,6 C 85 % 1012,3 hPa 0,0 l/m 0 min 0 min 0,0 UV-I 91 W/m 0,0 km/h (0 Bft)
21.05.2014 07:22 16,5 C 15,6 C 85 % 1012,2 hPa 0,0 l/m 0 min 0 min 0,0 UV-I 91 W/m 0,0 km/h (0 Bft)
21.05.2014 07:24 16,6 C 15,6 C 85 % 1012,1 hPa 0,0 l/m 0 min 0 min 0,0 UV-I 97 W/m 0,0 km/h (0 Bft)
21.05.2014 07:26 16,6 C 15,6 C 84 % 1012,0 hPa 0,0 l/m 0 min 0 min 0,0 UV-I 104 W/m 0,0 km/h (0 Bft)
21.05.2014 07:28 16,7 C 15,6 C 84 % 1012,1 hPa 0,0 l/m 0 min 0 min 0,0 UV-I 104 W/m 2,6 km/h (1 Bft)
21.05.2014 07:30 16,7 C 15,6 C 84 % 1012,2 hPa 0,0 l/m 0 min 0 min 0,0 UV-I 107 W/m 2,6 km/h (1 Bft)
21.05.2014 07:32 16,7 C 15,6 C 84 % 1012,2 hPa 0,0 l/m 0 min 0 min 0,0 UV-I 95 W/m 0,0 km/h (0 Bft)
21.05.2014 07:34 16,8 C 16,1 C 84 % 1012,2 hPa 0,0 l/m 0 min 0 min 0,0 UV-I 83 W/m 0,0 km/h (0 Bft)
21.05.2014 07:36 16,8 C 16,1 C 84 % 1012,2 hPa 0,0 l/m 0 min 0 min 0,0 UV-I 74 W/m 0,0 km/h (0 Bft)
21.05.2014 07:38 16,8 C 16,1 C 84 % 1012,2 hPa 0,0 l/m 0 min 0 min 0,0 UV-I 72 W/m 2,6 km/h (1 Bft)
21.05.2014 07:40 16,7 C 16,1 C 84 % 1012,3 hPa 0,0 l/m 0 min 0 min 0,0 UV-I 70 W/m 0,0 km/h (0 Bft)
21.05.2014 07:42 16,7 C 15,6 C 84 % 1012,3 hPa 0,0 l/m 0 min 0 min 0,0 UV-I 62 W/m 7,7 km/h (2 Bft)
21.05.2014 07:44 16,7 C 15,6 C 84 % 1012,3 hPa 0,0 l/m 0 min 0 min 0,0 UV-I 60 W/m 0,0 km/h (0 Bft)
21.05.2014 07:46 16,7 C 15,6 C 85 % 1012,3 hPa 0,0 l/m 0 min 0 min 0,0 UV-I 62 W/m 0,0 km/h (0 Bft)
21.05.2014 07:48 16,7 C 15,6 C 85 % 1012,3 hPa 0,0 l/m 0 min 0 min 0,0 UV-I 62 W/m 12,9 km/h (3 Bft)
21.05.2014 07:50 16,6 C 15,6 C 85 % 1012,2 hPa 0,0 l/m 0 min 0 min 0,0 UV-I 63 W/m 0,0 km/h (0 Bft)
21.05.2014 07:52 16,6 C 15,0 C 85 % 1012,1 hPa 0,0 l/m 0 min 2 min 0,0 UV-I 72 W/m 2,6 km/h (1 Bft)
21.05.2014 07:54 16,6 C 15,0 C 85 % 1012,1 hPa 0,0 l/m 0 min 2 min 0,0 UV-I 84 W/m 7,7 km/h (2 Bft)
21.05.2014 07:56 16,6 C 15,0 C 86 % 1012,2 hPa 0,0 l/m 0 min 2 min 0,0 UV-I 97 W/m 5,1 km/h (1 Bft)
21.05.2014 07:58 16,6 C 15,0 C 86 % 1012,2 hPa 0,0 l/m 0 min 2 min 0,0 UV-I 109 W/m 2,6 km/h (1 Bft)
21.05.2014 08:00 16,6 C 15,0 C 86 % 1012,2 hPa 0,0 l/m 0 min 0 min 0,0 UV-I 125 W/m 10,3 km/h (2 Bft)
21.05.2014 08:02 16,6 C 15,0 C 86 % 1012,1 hPa 0,0 l/m 0 min 0 min 0,0 UV-I 142 W/m 5,1 km/h (1 Bft)
21.05.2014 08:06 16,6 C 15,0 C 86 % 1012,1 hPa 0,0 l/m 0 min 0 min 0,0 UV-I 153 W/m 2,6 km/h (1 Bft)
21.05.2014 08:08 16,7 C 15,0 C 87 % 1011,9 hPa 0,0 l/m 0 min 0 min 0,0 UV-I 155 W/m 0,0 km/h (0 Bft)
21.05.2014 08:10 16,7 C 15,6 C 86 % 1011,8 hPa 0,0 l/m 0 min 0 min 0,0 UV-I 174 W/m 0,0 km/h (0 Bft)
21.05.2014 08:12 16,8 C 15,6 C 86 % 1011,7 hPa 0,0 l/m 0 min 0 min 0,0 UV-I 169 W/m 0,0 km/h (0 Bft)
21.05.2014 08:14 16,8 C 16,1 C 85 % 1011,8 hPa 0,0 l/m 0 min 0 min 0,0 UV-I 142 W/m 2,6 km/h (1 Bft)
21.05.2014 08:16 16,9 C 16,1 C 85 % 1011,8 hPa 0,0 l/m 0 min 0 min 0,0 UV-I 121 W/m 0,0 km/h (0 Bft)
21.05.2014 08:18 16,9 C 16,1 C 85 % 1011,7 hPa 0,0 l/m 0 min 0 min 0,0 UV-I 121 W/m 0,0 km/h (0 Bft)
21.05.2014 08:20 16,9 C 16,1 C 85 % 1011,7 hPa 0,0 l/m 0 min 2 min 0,0 UV-I 118 W/m 0,0 km/h (0 Bft)
21.05.2014 08:22 16,9 C 16,1 C 85 % 1011,6 hPa 0,0 l/m 0 min 2 min 0,0 UV-I 107 W/m 0,0 km/h (0 Bft)
21.05.2014 08:24 16,9 C 15,6 C 85 % 1011,7 hPa 0,0 l/m 0 min 2 min 0,0 UV-I 100 W/m 0,0 km/h (0 Bft)
21.05.2014 08:26 16,9 C 15,6 C 86 % 1011,8 hPa 0,0 l/m 0 min 2 min 0,0 UV-I 100 W/m 0,0 km/h (0 Bft)
21.05.2014 08:28 16,9 C 15,6 C 86 % 1011,8 hPa 0,0 l/m 0 min 0 min 0,0 UV-I 113 W/m 7,7 km/h (2 Bft)
21.05.2014 08:30 16,9 C 15,6 C 86 % 1011,8 hPa 0,0 l/m 0 min 0 min 0,0 UV-I 123 W/m 5,1 km/h (1 Bft)
21.05.2014 08:32 16,9 C 15,6 C 87 % 1011,9 hPa 0,0 l/m 0 min 0 min 0,0 UV-I 139 W/m 2,6 km/h (1 Bft)
21.05.2014 08:34 16,8 C 15,0 C 87 % 1012,0 hPa 0,0 l/m 0 min 0 min 0,0 UV-I 171 W/m 10,3 km/h (2 Bft)
21.05.2014 08:36 16,9 C 15,6 C 87 % 1012,0 hPa 0,0 l/m 2 min 0 min 0,0 UV-I 345 W/m 10,3 km/h (2 Bft)
21.05.2014 08:38 17,0 C 15,6 C 87 % 1012,0 hPa 0,0 l/m 2 min 0 min 0,0 UV-I 327 W/m 10,3 km/h (2 Bft)
21.05.2014 08:40 17,1 C 16,1 C 87 % 1012,1 hPa 0,0 l/m 0 min 0 min 0,0 UV-I 190 W/m 10,3 km/h (2 Bft)
21.05.2014 08:42 17,2 C 16,1 C 87 % 1012,2 hPa 0,0 l/m 0 min 0 min 0,0 UV-I 160 W/m 5,1 km/h (1 Bft)
21.05.2014 08:44 17,3 C 16,1 C 87 % 1012,3 hPa 0,0 l/m 0 min 0 min 0,0 UV-I 160 W/m 12,9 km/h (3 Bft)
21.05.2014 08:46 17,3 C 16,7 C 86 % 1012,2 hPa 0,0 l/m 0 min 0 min 0,0 UV-I 188 W/m 5,1 km/h (1 Bft)
21.05.2014 08:48 17,4 C 16,7 C 86 % 1012,2 hPa 0,0 l/m 0 min 0 min 0,0 UV-I 236 W/m 7,7 km/h (2 Bft)
21.05.2014 08:50 17,4 C 16,7 C 86 % 1012,2 hPa 0,0 l/m 2 min 0 min 0,6 UV-I 510 W/m 10,3 km/h (2 Bft)
21.05.2014 08:52 17,7 C 17,2 C 85 % 1012,2 hPa 0,0 l/m 2 min 0 min 0,6 UV-I 557 W/m 7,7 km/h (2 Bft)
21.05.2014 08:54 18,1 C 17,2 C 85 % 1012,2 hPa 0,0 l/m 2 min 0 min 0,0 UV-I 571 W/m 10,3 km/h (2 Bft)
21.05.2014 08:56 18,3 C 17,8 C 84 % 1012,2 hPa 0,0 l/m 2 min 0 min 0,7 UV-I 292 W/m 10,3 km/h (2 Bft)
21.05.2014 08:58 18,4 C 17,8 C 83 % 1012,2 hPa 0,0 l/m 2 min 0 min 0,0 UV-I 408 W/m 12,9 km/h (3 Bft)
21.05.2014 09:00 18,4 C 17,8 C 81 % 1012,3 hPa 0,0 l/m 0 min 0 min 0,0 UV-I 264 W/m 15,4 km/h (3 Bft)
21.05.2014 09:02 18,4 C 17,8 C 81 % 1012,3 hPa 0,0 l/m 2 min 0 min 0,0 UV-I 287 W/m 12,9 km/h (3 Bft)
21.05.2014 09:06 18,6 C 17,8 C 81 % 1012,3 hPa 0,0 l/m 2 min 0 min 0,0 UV-I 292 W/m 20,6 km/h (4 Bft)
21.05.2014 09:08 18,6 C 17,8 C 80 % 1012,4 hPa 0,0 l/m 0 min 0 min 0,0 UV-I 255 W/m 18,0 km/h (3 Bft)
21.05.2014 09:10 18,6 C 17,8 C 80 % 1012,4 hPa 0,0 l/m 0 min 0 min 0,0 UV-I 192 W/m 20,6 km/h (4 Bft)
21.05.2014 09:12 18,6 C 17,8 C 79 % 1012,3 hPa 0,0 l/m 0 min 0 min 0,0 UV-I 195 W/m 12,9 km/h (3 Bft)
21.05.2014 09:14 18,5 C 17,8 C 79 % 1012,4 hPa 0,0 l/m 0 min 0 min 0,0 UV-I 202 W/m 15,4 km/h (3 Bft)
21.05.2014 09:16 18,4 C 17,8 C 79 % 1012,3 hPa 0,0 l/m 0 min 0 min 0,0 UV-I 183 W/m 15,4 km/h (3 Bft)
21.05.2014 09:18 18,4 C 17,8 C 80 % 1012,3 hPa 0,0 l/m 0 min 0 min 0,0 UV-I 165 W/m 12,9 km/h (3 Bft)
21.05.2014 09:20 18,4 C 17,8 C 80 % 1012,3 hPa 0,0 l/m 0 min 0 min 0,0 UV-I 153 W/m 15,4 km/h (3 Bft)
21.05.2014 09:22 18,3 C 17,8 C 80 % 1012,4 hPa 0,0 l/m 0 min 0 min 0,0 UV-I 141 W/m 12,9 km/h (3 Bft)
21.05.2014 09:24 18,3 C 17,2 C 79 % 1012,4 hPa 0,0 l/m 0 min 0 min 0,0 UV-I 142 W/m 7,7 km/h (2 Bft)
21.05.2014 09:26 18,3 C 17,2 C 80 % 1012,4 hPa 0,0 l/m 0 min 0 min 0,0 UV-I 158 W/m 2,6 km/h (1 Bft)
21.05.2014 09:28 18,2 C 17,2 C 80 % 1012,4 hPa 0,0 l/m 0 min 2 min 0,0 UV-I 171 W/m 0,0 km/h (0 Bft)
21.05.2014 09:30 18,3 C 17,2 C 81 % 1012,4 hPa 0,0 l/m 0 min 0 min 0,0 UV-I 174 W/m 0,0 km/h (0 Bft)
21.05.2014 09:32 18,3 C 17,2 C 81 % 1012,4 hPa 0,0 l/m 0 min 0 min 0,0 UV-I 185 W/m 12,9 km/h (3 Bft)
21.05.2014 09:34 18,3 C 17,8 C 81 % 1012,5 hPa 0,0 l/m 0 min 0 min 0,0 UV-I 195 W/m 2,6 km/h (1 Bft)
21.05.2014 09:36 18,3 C 17,8 C 81 % 1012,5 hPa 0,0 l/m 0 min 0 min 0,0 UV-I 206 W/m 10,3 km/h (2 Bft)
21.05.2014 09:38 18,4 C 17,8 C 81 % 1012,4 hPa 0,0 l/m 0 min 0 min 0,0 UV-I 213 W/m 2,6 km/h (1 Bft)
21.05.2014 09:40 18,4 C 18,3 C 81 % 1012,5 hPa 0,0 l/m 0 min 0 min 0,0 UV-I 213 W/m 0,0 km/h (0 Bft)
21.05.2014 09:42 18,5 C 18,3 C 82 % 1012,4 hPa 0,0 l/m 0 min 0 min 0,0 UV-I 206 W/m 0,0 km/h (0 Bft)
21.05.2014 09:44 18,6 C 18,3 C 81 % 1012,4 hPa 0,0 l/m 0 min 0 min 0,0 UV-I 202 W/m 2,6 km/h (1 Bft)
21.05.2014 09:46 18,7 C 18,3 C 82 % 1012,4 hPa 0,0 l/m 0 min 0 min 0,0 UV-I 200 W/m 0,0 km/h (0 Bft)
21.05.2014 09:48 18,7 C 18,3 C 81 % 1012,4 hPa 0,0 l/m 0 min 0 min 0,0 UV-I 200 W/m 0,0 km/h (0 Bft)
21.05.2014 09:50 18,8 C 18,3 C 81 % 1012,4 hPa 0,0 l/m 0 min 0 min 0,0 UV-I 188 W/m 0,0 km/h (0 Bft)
21.05.2014 09:52 18,9 C 18,9 C 82 % 1012,4 hPa 0,0 l/m 0 min 0 min 0,0 UV-I 178 W/m 0,0 km/h (0 Bft)
21.05.2014 09:54 18,9 C 18,3 C 81 % 1012,4 hPa 0,0 l/m 0 min 2 min 0,0 UV-I 160 W/m 0,0 km/h (0 Bft)
21.05.2014 09:56 18,9 C 18,3 C 81 % 1012,4 hPa 0,0 l/m 0 min 2 min 0,0 UV-I 134 W/m 0,0 km/h (0 Bft)
21.05.2014 09:58 18,9 C 18,3 C 81 % 1012,3 hPa 0,0 l/m 0 min 0 min 0,0 UV-I 128 W/m 0,0 km/h (0 Bft)
21.05.2014 10:00 18,9 C 18,3 C 81 % 1012,3 hPa 0,0 l/m 0 min 2 min 0,0 UV-I 141 W/m 0,0 km/h (0 Bft)
21.05.2014 10:02 18,9 C 18,3 C 81 % 1012,2 hPa 0,0 l/m 0 min 0 min 0,0 UV-I 158 W/m 2,6 km/h (1 Bft)
21.05.2014 10:06 18,9 C 18,3 C 81 % 1012,3 hPa 0,0 l/m 0 min 2 min 0,0 UV-I 160 W/m 7,7 km/h (2 Bft)
21.05.2014 10:08 18,9 C 18,3 C 81 % 1012,3 hPa 0,0 l/m 0 min 0 min 0,0 UV-I 132 W/m 0,0 km/h (0 Bft)
21.05.2014 10:10 18,9 C 18,3 C 80 % 1012,3 hPa 0,0 l/m 0 min 0 min 0,0 UV-I 111 W/m 2,6 km/h (1 Bft)
21.05.2014 10:12 18,9 C 18,3 C 80 % 1012,2 hPa 0,0 l/m 0 min 0 min 0,0 UV-I 93 W/m 0,0 km/h (0 Bft)
21.05.2014 10:14 18,8 C 17,8 C 81 % 1012,3 hPa 0,0 l/m 0 min 2 min 0,0 UV-I 84 W/m 0,0 km/h (0 Bft)
21.05.2014 10:16 18,8 C 17,8 C 81 % 1012,4 hPa 0,0 l/m 0 min 2 min 0,0 UV-I 86 W/m 2,6 km/h (1 Bft)
21.05.2014 10:18 18,8 C 17,8 C 82 % 1012,4 hPa 0,0 l/m 0 min 2 min 0,0 UV-I 88 W/m 2,6 km/h (1 Bft)
21.05.2014 10:20 18,7 C 17,2 C 82 % 1012,3 hPa 0,0 l/m 0 min 0 min 0,0 UV-I 105 W/m 2,6 km/h (1 Bft)
21.05.2014 10:22 18,7 C 17,2 C 83 % 1012,4 hPa 0,0 l/m 0 min 2 min 0,0 UV-I 139 W/m 0,0 km/h (0 Bft)
21.05.2014 10:24 18,7 C 17,2 C 83 % 1012,4 hPa 0,0 l/m 0 min 0 min 0,0 UV-I 139 W/m 2,6 km/h (1 Bft)
21.05.2014 10:26 18,7 C 17,8 C 83 % 1012,5 hPa 0,0 l/m 0 min 0 min 0,6 UV-I 250 W/m 2,6 km/h (1 Bft)
21.05.2014 10:28 18,8 C 18,3 C 83 % 1012,4 hPa 0,0 l/m 0 min 0 min 0,8 UV-I 341 W/m 0,0 km/h (0 Bft)
21.05.2014 10:30 19,0 C 18,9 C 83 % 1012,5 hPa 0,0 l/m 0 min 0 min 1,0 UV-I 362 W/m 7,7 km/h (2 Bft)
21.05.2014 10:32 19,2 C 18,9 C 82 % 1012,4 hPa 0,0 l/m 0 min 0 min 0,9 UV-I 362 W/m 0,0 km/h (0 Bft)
21.05.2014 10:34 19,4 C 19,4 C 81 % 1012,5 hPa 0,0 l/m 0 min 0 min 0,8 UV-I 294 W/m 10,3 km/h (2 Bft)
21.05.2014 10:36 19,6 C 19,4 C 80 % 1012,4 hPa 0,0 l/m 0 min 0 min 0,9 UV-I 316 W/m 10,3 km/h (2 Bft)
21.05.2014 10:38 19,7 C 19,4 C 80 % 1012,5 hPa 0,0 l/m 0 min 0 min 1,1 UV-I 355 W/m 10,3 km/h (2 Bft)
21.05.2014 10:40 19,8 C 20,0 C 79 % 1012,5 hPa 0,0 l/m 0 min 0 min 1,1 UV-I 336 W/m 10,3 km/h (2 Bft)
21.05.2014 10:42 19,9 C 20,0 C 78 % 1012,4 hPa 0,0 l/m 0 min 0 min 1,1 UV-I 320 W/m 2,6 km/h (1 Bft)
21.05.2014 10:44 20,0 C 20,0 C 78 % 1012,4 hPa 0,0 l/m 0 min 0 min 1,0 UV-I 308 W/m 7,7 km/h (2 Bft)
21.05.2014 10:46 20,1 C 20,0 C 77 % 1012,3 hPa 0,0 l/m 0 min 0 min 1,0 UV-I 304 W/m 7,7 km/h (2 Bft)
21.05.2014 10:48 20,1 C 20,0 C 77 % 1012,2 hPa 0,0 l/m 0 min 0 min 1,0 UV-I 297 W/m 10,3 km/h (2 Bft)
21.05.2014 10:50 20,1 C 20,0 C 76 % 1012,2 hPa 0,0 l/m 0 min 0 min 0,9 UV-I 294 W/m 15,4 km/h (3 Bft)
21.05.2014 10:52 20,1 C 20,0 C 75 % 1012,2 hPa 0,0 l/m 0 min 0 min 1,1 UV-I 311 W/m 10,3 km/h (2 Bft)
21.05.2014 10:54 20,1 C 20,0 C 76 % 1012,2 hPa 0,0 l/m 0 min 0 min 1,1 UV-I 346 W/m 7,7 km/h (2 Bft)
21.05.2014 10:56 20,1 C 20,6 C 77 % 1012,1 hPa 0,0 l/m 0 min 0 min 1,0 UV-I 297 W/m 0,0 km/h (0 Bft)
21.05.2014 10:58 20,1 C 20,6 C 75 % 1012,2 hPa 0,0 l/m 0 min 0 min 1,0 UV-I 292 W/m 12,9 km/h (3 Bft)
21.05.2014 11:00 20,1 C 20,0 C 74 % 1012,1 hPa 0,0 l/m 0 min 0 min 1,1 UV-I 297 W/m 10,3 km/h (2 Bft)
21.05.2014 11:02 20,1 C 20,0 C 75 % 1012,1 hPa 0,0 l/m 0 min 2 min 1,0 UV-I 274 W/m 10,3 km/h (2 Bft)
21.05.2014 11:06 20,1 C 20,0 C 74 % 1012,2 hPa 0,0 l/m 0 min 0 min 0,9 UV-I 264 W/m 15,4 km/h (3 Bft)
21.05.2014 11:08 20,1 C 20,0 C 75 % 1012,1 hPa 0,0 l/m 0 min 0 min 1,0 UV-I 292 W/m 7,7 km/h (2 Bft)
21.05.2014 11:10 20,1 C 20,0 C 75 % 1012,1 hPa 0,0 l/m 0 min 0 min 1,0 UV-I 299 W/m 10,3 km/h (2 Bft)
21.05.2014 11:12 20,2 C 20,0 C 75 % 1012,1 hPa 0,0 l/m 0 min 0 min 0,8 UV-I 243 W/m 7,7 km/h (2 Bft)
21.05.2014 11:14 20,2 C 20,0 C 74 % 1012,1 hPa 0,0 l/m 0 min 0 min 0,7 UV-I 234 W/m 20,6 km/h (4 Bft)
21.05.2014 11:16 20,1 C 20,0 C 74 % 1012,2 hPa 0,0 l/m 0 min 0 min 0,8 UV-I 257 W/m 12,9 km/h (3 Bft)
21.05.2014 11:18 20,1 C 20,0 C 75 % 1012,2 hPa 0,0 l/m 0 min 0 min 1,0 UV-I 281 W/m 18,0 km/h (3 Bft)
21.05.2014 11:20 20,1 C 20,0 C 75 % 1012,2 hPa 0,0 l/m 0 min 0 min 0,9 UV-I 267 W/m 10,3 km/h (2 Bft)
21.05.2014 11:22 20,1 C 20,0 C 75 % 1012,2 hPa 0,0 l/m 0 min 0 min 0,9 UV-I 267 W/m 12,9 km/h (3 Bft)
21.05.2014 11:24 20,2 C 20,0 C 75 % 1012,2 hPa 0,0 l/m 0 min 0 min 1,0 UV-I 285 W/m 0,0 km/h (0 Bft)
21.05.2014 11:26 20,2 C 20,0 C 75 % 1012,2 hPa 0,0 l/m 0 min 0 min 0,9 UV-I 272 W/m 7,7 km/h (2 Bft)
21.05.2014 11:28 20,3 C 20,0 C 74 % 1012,3 hPa 0,0 l/m 0 min 0 min 1,0 UV-I 278 W/m 10,3 km/h (2 Bft)
21.05.2014 11:30 20,3 C 20,0 C 73 % 1012,3 hPa 0,0 l/m 0 min 0 min 1,1 UV-I 306 W/m 12,9 km/h (3 Bft)
21.05.2014 11:32 20,3 C 20,0 C 72 % 1012,3 hPa 0,0 l/m 0 min 0 min 1,1 UV-I 313 W/m 18,0 km/h (3 Bft)
21.05.2014 11:34 20,4 C 20,0 C 71 % 1012,3 hPa 0,0 l/m 0 min 0 min 0,9 UV-I 260 W/m 12,9 km/h (3 Bft)
21.05.2014 11:36 20,4 C 20,0 C 72 % 1012,3 hPa 0,0 l/m 0 min 0 min 0,9 UV-I 251 W/m 12,9 km/h (3 Bft)
21.05.2014 11:38 20,4 C 20,0 C 72 % 1012,4 hPa 0,0 l/m 0 min 0 min 1,2 UV-I 297 W/m 23,2 km/h (4 Bft)
21.05.2014 11:40 20,4 C 20,6 C 71 % 1012,5 hPa 0,0 l/m 0 min 0 min 1,6 UV-I 385 W/m 12,9 km/h (3 Bft)
21.05.2014 11:42 20,7 C 21,1 C 73 % 1012,4 hPa 0,0 l/m 0 min 0 min 2,0 UV-I 404 W/m 2,6 km/h (1 Bft)
21.05.2014 11:44 20,7 C 21,1 C 71 % 1012,5 hPa 0,0 l/m 2 min 0 min 2,0 UV-I 526 W/m 15,4 km/h (3 Bft)
21.05.2014 11:46 20,8 C 21,1 C 71 % 1012,4 hPa 0,0 l/m 0 min 0 min 1,3 UV-I 301 W/m 5,1 km/h (1 Bft)
21.05.2014 11:48 20,8 C 21,1 C 70 % 1012,3 hPa 0,0 l/m 0 min 0 min 0,9 UV-I 244 W/m 2,6 km/h (1 Bft)
21.05.2014 11:50 20,8 C 21,1 C 70 % 1012,2 hPa 0,0 l/m 0 min 0 min 0,8 UV-I 229 W/m 5,1 km/h (1 Bft)
21.05.2014 11:52 20,7 C 20,6 C 70 % 1012,2 hPa 0,0 l/m 0 min 0 min 0,7 UV-I 213 W/m 18,0 km/h (3 Bft)
21.05.2014 11:54 20,7 C 20,6 C 71 % 1012,4 hPa 0,0 l/m 0 min 0 min 0,7 UV-I 220 W/m 5,1 km/h (1 Bft)
21.05.2014 11:56 20,6 C 20,0 C 70 % 1012,4 hPa 0,0 l/m 0 min 0 min 0,9 UV-I 251 W/m 10,3 km/h (2 Bft)
21.05.2014 11:58 20,5 C 20,0 C 69 % 1012,3 hPa 0,0 l/m 0 min 0 min 1,0 UV-I 257 W/m 12,9 km/h (3 Bft)
21.05.2014 12:00 20,4 C 20,0 C 69 % 1012,2 hPa 0,0 l/m 0 min 0 min 0,8 UV-I 229 W/m 12,9 km/h (3 Bft)
21.05.2014 12:02 20,4 C 20,0 C 69 % 1012,1 hPa 0,0 l/m 0 min 0 min 1,0 UV-I 265 W/m 7,7 km/h (2 Bft)
21.05.2014 12:06 20,5 C 20,6 C 71 % 1012,3 hPa 0,0 l/m 0 min 0 min 1,5 UV-I 346 W/m 12,9 km/h (3 Bft)
21.05.2014 12:08 20,6 C 20,6 C 71 % 1012,3 hPa 0,0 l/m 0 min 0 min 1,5 UV-I 318 W/m 15,4 km/h (3 Bft)
21.05.2014 12:10 20,6 C 20,6 C 69 % 1012,4 hPa 0,0 l/m 0 min 0 min 1,4 UV-I 294 W/m 25,7 km/h (4 Bft)
21.05.2014 12:12 20,5 C 20,6 C 69 % 1012,4 hPa 0,0 l/m 0 min 0 min 1,2 UV-I 278 W/m 10,3 km/h (2 Bft)
21.05.2014 12:14 20,4 C 20,6 C 69 % 1012,3 hPa 0,0 l/m 0 min 0 min 1,2 UV-I 292 W/m 10,3 km/h (2 Bft)
21.05.2014 12:16 20,4 C 20,0 C 69 % 1012,3 hPa 0,0 l/m 0 min 0 min 1,1 UV-I 269 W/m 12,9 km/h (3 Bft)
21.05.2014 12:18 20,4 C 20,0 C 70 % 1012,2 hPa 0,0 l/m 0 min 0 min 0,8 UV-I 225 W/m 10,3 km/h (2 Bft)
21.05.2014 12:20 20,4 C 20,0 C 69 % 1012,2 hPa 0,0 l/m 0 min 0 min 0,7 UV-I 206 W/m 15,4 km/h (3 Bft)
21.05.2014 12:22 20,3 C 20,0 C 70 % 1012,2 hPa 0,0 l/m 0 min 0 min 0,7 UV-I 213 W/m 12,9 km/h (3 Bft)
21.05.2014 12:24 20,2 C 19,4 C 70 % 1012,1 hPa 0,0 l/m 0 min 0 min 0,7 UV-I 209 W/m 18,0 km/h (3 Bft)
21.05.2014 12:26 20,2 C 19,4 C 70 % 1012,1 hPa 0,0 l/m 0 min 0 min 0,9 UV-I 230 W/m 7,7 km/h (2 Bft)
21.05.2014 12:28 20,2 C 20,0 C 70 % 1012,1 hPa 0,0 l/m 0 min 0 min 1,2 UV-I 287 W/m 15,4 km/h (3 Bft)
21.05.2014 12:30 20,3 C 20,0 C 71 % 1012,1 hPa 0,0 l/m 0 min 0 min 1,6 UV-I 323 W/m 15,4 km/h (3 Bft)
21.05.2014 12:32 20,3 C 20,6 C 70 % 1012,1 hPa 0,0 l/m 2 min 0 min 2,3 UV-I 459 W/m 15,4 km/h (3 Bft)
21.05.2014 12:34 20,7 C 21,7 C 70 % 1012,1 hPa 0,0 l/m 2 min 0 min 2,9 UV-I 666 W/m 18,0 km/h (3 Bft)
21.05.2014 12:36 21,1 C 22,2 C 70 % 1012,0 hPa 0,0 l/m 2 min 0 min 2,6 UV-I 666 W/m 12,9 km/h (3 Bft)
21.05.2014 12:38 21,3 C 22,8 C 69 % 1012,0 hPa 0,0 l/m 2 min 0 min 3,9 UV-I 666 W/m 10,3 km/h (2 Bft)
21.05.2014 12:40 21,7 C 23,9 C 69 % 1012,0 hPa 0,0 l/m 2 min 0 min 3,8 UV-I 835 W/m 7,7 km/h (2 Bft)
21.05.2014 12:42 22,1 C 24,4 C 70 % 1011,9 hPa 0,0 l/m 2 min 0 min 3,2 UV-I 805 W/m 7,7 km/h (2 Bft)
21.05.2014 12:44 22,3 C 23,9 C 66 % 1011,9 hPa 0,0 l/m 0 min 0 min 2,3 UV-I 425 W/m 12,9 km/h (3 Bft)
21.05.2014 12:46 22,3 C 23,3 C 66 % 1011,9 hPa 0,0 l/m 2 min 0 min 2,3 UV-I 459 W/m 15,4 km/h (3 Bft)
21.05.2014 12:48 22,2 C 23,3 C 66 % 1011,8 hPa 0,0 l/m 0 min 0 min 2,2 UV-I 439 W/m 20,6 km/h (4 Bft)
21.05.2014 12:50 22,1 C 23,3 C 66 % 1011,9 hPa 0,0 l/m 0 min 0 min 1,7 UV-I 350 W/m 20,6 km/h (4 Bft)
21.05.2014 12:52 21,9 C 22,2 C 65 % 1011,9 hPa 0,0 l/m 0 min 0 min 1,3 UV-I 253 W/m 28,3 km/h (4 Bft)
21.05.2014 12:54 21,7 C 21,7 C 66 % 1011,9 hPa 0,0 l/m 0 min 0 min 0,8 UV-I 214 W/m 12,9 km/h (3 Bft)
21.05.2014 12:56 21,6 C 21,7 C 67 % 1011,9 hPa 0,0 l/m 0 min 0 min 0,7 UV-I 193 W/m 7,7 km/h (2 Bft)
21.05.2014 12:58 21,4 C 21,1 C 67 % 1011,9 hPa 0,0 l/m 0 min 0 min 0,7 UV-I 190 W/m 2,6 km/h (1 Bft)
21.05.2014 13:00 21,3 C 21,1 C 68 % 1012,0 hPa 0,0 l/m 0 min 0 min 0,7 UV-I 185 W/m 10,3 km/h (2 Bft)
21.05.2014 13:02 21,2 C 20,6 C 69 % 1012,1 hPa 0,0 l/m 0 min 0 min 0,6 UV-I 174 W/m 10,3 km/h (2 Bft)
21.05.2014 13:06 21,1 C 20,6 C 69 % 1012,1 hPa 0,0 l/m 0 min 0 min 0,5 UV-I 169 W/m 10,3 km/h (2 Bft)
21.05.2014 13:08 21,1 C 20,6 C 68 % 1011,9 hPa 0,0 l/m 0 min 0 min 0,0 UV-I 149 W/m 12,9 km/h (3 Bft)
21.05.2014 13:10 21,0 C 20,0 C 68 % 1011,9 hPa 0,0 l/m 0 min 0 min 0,0 UV-I 135 W/m 10,3 km/h (2 Bft)
21.05.2014 13:12 20,9 C 20,0 C 70 % 1011,9 hPa 0,0 l/m 0 min 0 min 0,0 UV-I 137 W/m 10,3 km/h (2 Bft)
21.05.2014 13:14 20,8 C 20,0 C 68 % 1011,8 hPa 0,0 l/m 0 min 0 min 0,0 UV-I 132 W/m 12,9 km/h (3 Bft)
21.05.2014 13:16 20,8 C 20,0 C 68 % 1011,8 hPa 0,0 l/m 0 min 0 min 0,0 UV-I 139 W/m 15,4 km/h (3 Bft)
21.05.2014 13:18 20,7 C 20,0 C 69 % 1011,8 hPa 0,0 l/m 0 min 0 min 0,0 UV-I 148 W/m 7,7 km/h (2 Bft)
21.05.2014 13:20 20,7 C 20,0 C 68 % 1011,8 hPa 0,0 l/m 0 min 0 min 0,0 UV-I 155 W/m 10,3 km/h (2 Bft)
21.05.2014 13:22 20,7 C 20,0 C 70 % 1011,8 hPa 0,0 l/m 0 min 0 min 0,6 UV-I 174 W/m 5,1 km/h (1 Bft)
21.05.2014 13:24 20,7 C 20,0 C 69 % 1011,7 hPa 0,0 l/m 0 min 0 min 0,5 UV-I 174 W/m 5,1 km/h (1 Bft)
21.05.2014 13:26 20,7 C 20,0 C 68 % 1011,8 hPa 0,0 l/m 0 min 0 min 0,5 UV-I 165 W/m 7,7 km/h (2 Bft)
21.05.2014 13:28 20,7 C 20,0 C 68 % 1011,6 hPa 0,0 l/m 0 min 0 min 0,0 UV-I 160 W/m 0,0 km/h (0 Bft)
21.05.2014 13:30 20,7 C 20,0 C 69 % 1011,6 hPa 0,0 l/m 0 min 0 min 0,5 UV-I 171 W/m 5,1 km/h (1 Bft)
21.05.2014 13:32 20,7 C 20,0 C 69 % 1011,6 hPa 0,0 l/m 0 min 0 min 0,7 UV-I 206 W/m 2,6 km/h (1 Bft)
21.05.2014 13:34 20,8 C 20,0 C 69 % 1011,5 hPa 0,0 l/m 0 min 0 min 0,9 UV-I 220 W/m 0,0 km/h (0 Bft)
21.05.2014 13:36 20,9 C 20,0 C 70 % 1011,6 hPa 0,0 l/m 0 min 0 min 0,8 UV-I 220 W/m 0,0 km/h (0 Bft)
21.05.2014 13:38 20,9 C 20,6 C 69 % 1011,5 hPa 0,0 l/m 0 min 0 min 0,7 UV-I 197 W/m 0,0 km/h (0 Bft)
21.05.2014 13:40 21,0 C 20,6 C 70 % 1011,5 hPa 0,0 l/m 0 min 0 min 0,7 UV-I 195 W/m 0,0 km/h (0 Bft)
21.05.2014 13:42 21,0 C 20,6 C 68 % 1011,5 hPa 0,0 l/m 0 min 0 min 0,7 UV-I 206 W/m 2,6 km/h (1 Bft)
21.05.2014 13:44 21,0 C 20,6 C 69 % 1011,5 hPa 0,0 l/m 0 min 2 min 0,9 UV-I 229 W/m 0,0 km/h (0 Bft)
21.05.2014 13:46 21,1 C 20,6 C 69 % 1011,5 hPa 0,0 l/m 0 min 2 min 1,0 UV-I 246 W/m 0,0 km/h (0 Bft)
21.05.2014 13:48 21,1 C 20,6 C 69 % 1011,4 hPa 0,0 l/m 0 min 0 min 1,4 UV-I 267 W/m 0,0 km/h (0 Bft)
21.05.2014 13:50 21,2 C 21,1 C 69 % 1011,5 hPa 0,0 l/m 0 min 0 min 1,6 UV-I 353 W/m 0,0 km/h (0 Bft)
21.05.2014 13:52 21,3 C 21,1 C 69 % 1011,5 hPa 0,0 l/m 0 min 0 min 2,0 UV-I 424 W/m 2,6 km/h (1 Bft)
21.05.2014 13:54 21,5 C 21,7 C 68 % 1011,5 hPa 0,0 l/m 0 min 0 min 2,1 UV-I 415 W/m 2,6 km/h (1 Bft)
21.05.2014 13:56 21,7 C 22,2 C 70 % 1011,5 hPa 0,0 l/m 0 min 0 min 2,1 UV-I 410 W/m 2,6 km/h (1 Bft)
21.05.2014 13:58 21,9 C 22,8 C 68 % 1011,5 hPa 0,0 l/m 0 min 0 min 2,2 UV-I 424 W/m 2,6 km/h (1 Bft)
21.05.2014 14:00 22,0 C 22,8 C 66 % 1011,4 hPa 0,0 l/m 0 min 0 min 2,2 UV-I 424 W/m 0,0 km/h (0 Bft)
21.05.2014 14:02 22,1 C 22,8 C 68 % 1011,4 hPa 0,0 l/m 0 min 0 min 2,0 UV-I 380 W/m 0,0 km/h (0 Bft)
21.05.2014 14:06 22,3 C 22,8 C 67 % 1011,4 hPa 0,0 l/m 0 min 0 min 1,7 UV-I 353 W/m 2,6 km/h (1 Bft)
21.05.2014 14:08 22,3 C 22,8 C 64 % 1011,4 hPa 0,0 l/m 0 min 0 min 1,5 UV-I 297 W/m 2,6 km/h (1 Bft)
21.05.2014 14:10 22,3 C 22,8 C 66 % 1011,4 hPa 0,0 l/m 0 min 0 min 1,3 UV-I 283 W/m 2,6 km/h (1 Bft)
21.05.2014 14:12 22,3 C 22,8 C 68 % 1011,4 hPa 0,0 l/m 0 min 0 min 1,2 UV-I 272 W/m 0,0 km/h (0 Bft)
21.05.2014 14:14 22,3 C 22,2 C 65 % 1011,4 hPa 0,0 l/m 0 min 0 min 1,1 UV-I 248 W/m 10,3 km/h (2 Bft)
21.05.2014 14:16 22,2 C 22,2 C 64 % 1011,4 hPa 0,0 l/m 0 min 0 min 1,1 UV-I 264 W/m 2,6 km/h (1 Bft)
21.05.2014 14:18 22,2 C 22,2 C 65 % 1011,3 hPa 0,0 l/m 0 min 0 min 1,3 UV-I 292 W/m 0,0 km/h (0 Bft)
21.05.2014 14:20 22,2 C 22,2 C 63 % 1011,2 hPa 0,0 l/m 0 min 0 min 1,5 UV-I 323 W/m 7,7 km/h (2 Bft)
21.05.2014 14:22 22,2 C 22,2 C 63 % 1011,1 hPa 0,0 l/m 0 min 0 min 1,4 UV-I 313 W/m 7,7 km/h (2 Bft)
21.05.2014 14:24 22,3 C 22,2 C 64 % 1011,1 hPa 0,0 l/m 0 min 0 min 1,3 UV-I 304 W/m 0,0 km/h (0 Bft)
21.05.2014 14:26 22,3 C 22,2 C 66 % 1011,0 hPa 0,0 l/m 0 min 0 min 1,4 UV-I 315 W/m 2,6 km/h (1 Bft)
21.05.2014 14:28 22,3 C 22,8 C 66 % 1010,9 hPa 0,0 l/m 0 min 0 min 1,3 UV-I 302 W/m 2,6 km/h (1 Bft)
21.05.2014 14:30 22,3 C 22,2 C 64 % 1010,8 hPa 0,0 l/m 0 min 0 min 1,2 UV-I 279 W/m 5,1 km/h (1 Bft)
21.05.2014 14:32 22,3 C 22,2 C 64 % 1010,8 hPa 0,0 l/m 0 min 0 min 1,1 UV-I 253 W/m 0,0 km/h (0 Bft)
21.05.2014 14:34 22,3 C 22,2 C 64 % 1010,8 hPa 0,0 l/m 0 min 0 min 1,1 UV-I 253 W/m 0,0 km/h (0 Bft)
21.05.2014 14:36 22,3 C 22,2 C 65 % 1010,7 hPa 0,0 l/m 0 min 0 min 1,0 UV-I 244 W/m 7,7 km/h (2 Bft)
21.05.2014 14:38 22,2 C 21,7 C 65 % 1010,7 hPa 0,0 l/m 0 min 0 min 0,8 UV-I 209 W/m 2,6 km/h (1 Bft)
21.05.2014 14:40 22,2 C 21,7 C 65 % 1010,7 hPa 0,0 l/m 0 min 0 min 0,7 UV-I 197 W/m 0,0 km/h (0 Bft)
21.05.2014 14:42 22,2 C 21,7 C 65 % 1010,6 hPa 0,0 l/m 0 min 0 min 0,8 UV-I 213 W/m 0,0 km/h (0 Bft)
21.05.2014 14:44 22,2 C 21,7 C 66 % 1010,5 hPa 0,0 l/m 0 min 0 min 1,0 UV-I 239 W/m 2,6 km/h (1 Bft)
21.05.2014 14:46 22,2 C 21,7 C 66 % 1010,6 hPa 0,0 l/m 0 min 0 min 1,0 UV-I 248 W/m 10,3 km/h (2 Bft)
21.05.2014 14:48 22,3 C 21,7 C 66 % 1010,5 hPa 0,0 l/m 0 min 0 min 1,2 UV-I 283 W/m 2,6 km/h (1 Bft)
21.05.2014 14:50 22,4 C 22,2 C 66 % 1010,4 hPa 0,0 l/m 0 min 0 min 1,5 UV-I 345 W/m 0,0 km/h (0 Bft)
21.05.2014 14:52 22,5 C 22,2 C 65 % 1010,3 hPa 0,0 l/m 0 min 0 min 1,5 UV-I 352 W/m 2,6 km/h (1 Bft)
21.05.2014 14:54 22,7 C 22,8 C 65 % 1010,3 hPa 0,0 l/m 0 min 0 min 1,5 UV-I 348 W/m 2,6 km/h (1 Bft)
21.05.2014 14:56 22,8 C 22,8 C 65 % 1010,3 hPa 0,0 l/m 0 min 0 min 1,5 UV-I 348 W/m 2,6 km/h (1 Bft)
21.05.2014 14:58 22,8 C 22,8 C 65 % 1010,3 hPa 0,0 l/m 0 min 0 min 1,4 UV-I 332 W/m 12,9 km/h (3 Bft)
21.05.2014 15:00 22,8 C 22,8 C 64 % 1010,3 hPa 0,0 l/m 0 min 0 min 1,3 UV-I 299 W/m 10,3 km/h (2 Bft)
21.05.2014 15:02 22,8 C 22,8 C 63 % 1010,3 hPa 0,0 l/m 0 min 0 min 1,2 UV-I 285 W/m 10,3 km/h (2 Bft)
21.05.2014 15:06 22,8 C 22,8 C 63 % 1010,3 hPa 0,0 l/m 0 min 0 min 1,1 UV-I 279 W/m 15,4 km/h (3 Bft)
21.05.2014 15:08 22,8 C 22,8 C 66 % 1010,3 hPa 0,0 l/m 0 min 0 min 1,2 UV-I 294 W/m 7,7 km/h (2 Bft)
21.05.2014 15:10 22,9 C 22,8 C 65 % 1010,2 hPa 0,0 l/m 0 min 0 min 1,3 UV-I 311 W/m 5,1 km/h (1 Bft)
21.05.2014 15:12 22,9 C 22,8 C 63 % 1010,2 hPa 0,0 l/m 0 min 0 min 1,4 UV-I 359 W/m 7,7 km/h (2 Bft)
21.05.2014 15:14 23,1 C 22,8 C 63 % 1010,2 hPa 0,0 l/m 0 min 0 min 1,6 UV-I 359 W/m 7,7 km/h (2 Bft)
21.05.2014 15:16 23,1 C 23,3 C 62 % 1010,1 hPa 0,0 l/m 0 min 0 min 1,5 UV-I 352 W/m 2,6 km/h (1 Bft)
21.05.2014 15:18 23,2 C 23,3 C 62 % 1010,0 hPa 0,0 l/m 0 min 0 min 1,5 UV-I 355 W/m 10,3 km/h (2 Bft)
21.05.2014 15:20 23,2 C 23,3 C 63 % 1010,1 hPa 0,0 l/m 0 min 0 min 1,5 UV-I 355 W/m 5,1 km/h (1 Bft)
21.05.2014 15:22 23,3 C 23,3 C 63 % 1010,1 hPa 0,0 l/m 0 min 0 min 1,5 UV-I 339 W/m 7,7 km/h (2 Bft)
21.05.2014 15:24 23,4 C 23,3 C 62 % 1010,1 hPa 0,0 l/m 0 min 0 min 1,4 UV-I 334 W/m 7,7 km/h (2 Bft)
21.05.2014 15:26 23,4 C 23,3 C 61 % 1010,0 hPa 0,0 l/m 0 min 0 min 1,3 UV-I 302 W/m 10,3 km/h (2 Bft)
21.05.2014 15:28 23,4 C 23,3 C 62 % 1010,0 hPa 0,0 l/m 0 min 0 min 1,1 UV-I 272 W/m 0,0 km/h (0 Bft)
21.05.2014 15:30 23,4 C 23,3 C 62 % 1009,9 hPa 0,0 l/m 0 min 0 min 1,0 UV-I 255 W/m 7,7 km/h (2 Bft)
21.05.2014 15:32 23,3 C 23,3 C 62 % 1009,7 hPa 0,0 l/m 0 min 0 min 0,9 UV-I 230 W/m 2,6 km/h (1 Bft)
21.05.2014 15:34 23,3 C 22,8 C 62 % 1009,7 hPa 0,0 l/m 0 min 0 min 0,7 UV-I 192 W/m 2,6 km/h (1 Bft)
21.05.2014 15:36 23,3 C 22,8 C 62 % 1009,7 hPa 0,0 l/m 0 min 0 min 0,5 UV-I 146 W/m 7,7 km/h (2 Bft)
21.05.2014 15:38 23,3 C 22,8 C 61 % 1009,7 hPa 0,0 l/m 0 min 0 min 0,0 UV-I 134 W/m 7,7 km/h (2 Bft)
21.05.2014 15:40 23,2 C 22,2 C 62 % 1009,6 hPa 0,0 l/m 0 min 0 min 0,0 UV-I 135 W/m 12,9 km/h (3 Bft)
21.05.2014 15:42 23,1 C 22,2 C 61 % 1009,6 hPa 0,0 l/m 0 min 0 min 0,0 UV-I 151 W/m 15,4 km/h (3 Bft)
21.05.2014 15:44 23,1 C 21,7 C 61 % 1009,5 hPa 0,0 l/m 0 min 0 min 0,5 UV-I 165 W/m 12,9 km/h (3 Bft)
21.05.2014 15:46 23,0 C 21,7 C 63 % 1009,5 hPa 0,0 l/m 0 min 0 min 0,5 UV-I 169 W/m 2,6 km/h (1 Bft)
21.05.2014 15:48 23,0 C 21,7 C 62 % 1009,5 hPa 0,0 l/m 0 min 0 min 0,5 UV-I 171 W/m 2,6 km/h (1 Bft)
21.05.2014 15:50 23,1 C 21,7 C 62 % 1009,5 hPa 0,0 l/m 0 min 0 min 0,5 UV-I 172 W/m 0,0 km/h (0 Bft)
21.05.2014 15:52 23,1 C 21,7 C 63 % 1009,5 hPa 0,0 l/m 0 min 0 min 0,5 UV-I 174 W/m 0,0 km/h (0 Bft)
21.05.2014 15:54 23,1 C 21,7 C 62 % 1009,5 hPa 0,0 l/m 0 min 0 min 0,5 UV-I 176 W/m 7,7 km/h (2 Bft)
21.05.2014 15:56 23,2 C 22,2 C 62 % 1009,4 hPa 0,0 l/m 0 min 0 min 0,5 UV-I 179 W/m 0,0 km/h (0 Bft)
21.05.2014 15:58 23,1 C 22,2 C 63 % 1009,3 hPa 0,0 l/m 0 min 0 min 0,6 UV-I 181 W/m 10,3 km/h (2 Bft)
21.05.2014 16:00 23,1 C 22,2 C 63 % 1009,2 hPa 0,0 l/m 0 min 0 min 0,6 UV-I 190 W/m 5,1 km/h (1 Bft)
21.05.2014 16:02 23,1 C 22,2 C 63 % 1009,1 hPa 0,0 l/m 0 min 0 min 0,6 UV-I 197 W/m 2,6 km/h (1 Bft)
21.05.2014 16:06 23,2 C 22,2 C 62 % 1009,0 hPa 0,0 l/m 0 min 0 min 0,6 UV-I 192 W/m 12,9 km/h (3 Bft)
21.05.2014 16:08 23,2 C 22,2 C 63 % 1009,0 hPa 0,0 l/m 0 min 0 min 0,5 UV-I 178 W/m 5,1 km/h (1 Bft)
21.05.2014 16:10 23,2 C 22,2 C 63 % 1009,0 hPa 0,0 l/m 0 min 0 min 0,0 UV-I 162 W/m 2,6 km/h (1 Bft)
21.05.2014 16:12 23,2 C 22,2 C 63 % 1008,9 hPa 0,0 l/m 0 min 0 min 0,0 UV-I 156 W/m 7,7 km/h (2 Bft)
21.05.2014 16:14 23,1 C 22,2 C 64 % 1008,9 hPa 0,0 l/m 0 min 0 min 0,5 UV-I 171 W/m 2,6 km/h (1 Bft)
21.05.2014 16:16 23,1 C 22,2 C 63 % 1008,8 hPa 0,0 l/m 0 min 0 min 0,5 UV-I 179 W/m 10,3 km/h (2 Bft)
21.05.2014 16:18 23,1 C 21,7 C 64 % 1008,8 hPa 0,0 l/m 0 min 0 min 0,5 UV-I 176 W/m 5,1 km/h (1 Bft)
21.05.2014 16:20 23,1 C 22,2 C 64 % 1008,8 hPa 0,0 l/m 0 min 0 min 0,5 UV-I 179 W/m 2,6 km/h (1 Bft)
21.05.2014 16:22 23,1 C 22,2 C 64 % 1008,9 hPa 0,0 l/m 0 min 0 min 0,0 UV-I 162 W/m 10,3 km/h (2 Bft)
21.05.2014 16:24 23,1 C 22,2 C 64 % 1008,9 hPa 0,0 l/m 0 min 0 min 0,0 UV-I 149 W/m 7,7 km/h (2 Bft)
21.05.2014 16:26 23,1 C 21,7 C 64 % 1008,9 hPa 0,0 l/m 0 min 0 min 0,0 UV-I 142 W/m 0,0 km/h (0 Bft)
21.05.2014 16:28 23,1 C 22,2 C 63 % 1008,9 hPa 0,0 l/m 0 min 0 min 0,0 UV-I 141 W/m 12,9 km/h (3 Bft)
21.05.2014 16:30 23,1 C 21,7 C 64 % 1008,8 hPa 0,0 l/m 0 min 0 min 0,0 UV-I 134 W/m 0,0 km/h (0 Bft)
21.05.2014 16:32 23,1 C 21,7 C 63 % 1008,8 hPa 0,0 l/m 0 min 0 min 0,0 UV-I 135 W/m 2,6 km/h (1 Bft)
21.05.2014 16:34 23,1 C 22,2 C 63 % 1008,7 hPa 0,0 l/m 0 min 0 min 0,0 UV-I 141 W/m 0,0 km/h (0 Bft)
21.05.2014 16:36 23,1 C 21,7 C 63 % 1008,8 hPa 0,0 l/m 0 min 0 min 0,0 UV-I 139 W/m 10,3 km/h (2 Bft)
21.05.2014 16:38 23,1 C 21,7 C 63 % 1008,7 hPa 0,0 l/m 0 min 0 min 0,0 UV-I 139 W/m 10,3 km/h (2 Bft)
21.05.2014 16:40 23,1 C 21,7 C 63 % 1008,7 hPa 0,0 l/m 0 min 0 min 0,0 UV-I 146 W/m 2,6 km/h (1 Bft)
21.05.2014 16:42 23,0 C 21,7 C 64 % 1008,7 hPa 0,0 l/m 0 min 0 min 0,0 UV-I 162 W/m 0,0 km/h (0 Bft)
21.05.2014 16:44 23,1 C 21,7 C 64 % 1008,7 hPa 0,0 l/m 0 min 0 min 0,5 UV-I 190 W/m 0,0 km/h (0 Bft)
21.05.2014 16:46 23,1 C 22,2 C 65 % 1008,7 hPa 0,0 l/m 0 min 0 min 0,5 UV-I 207 W/m 0,0 km/h (0 Bft)
21.05.2014 16:48 23,1 C 22,2 C 65 % 1008,6 hPa 0,0 l/m 0 min 0 min 0,5 UV-I 195 W/m 2,6 km/h (1 Bft)
21.05.2014 16:50 23,2 C 22,2 C 64 % 1008,6 hPa 0,0 l/m 0 min 0 min 0,0 UV-I 174 W/m 10,3 km/h (2 Bft)
21.05.2014 16:52 23,3 C 22,2 C 63 % 1008,6 hPa 0,0 l/m 0 min 0 min 0,0 UV-I 169 W/m 0,0 km/h (0 Bft)
21.05.2014 16:54 23,3 C 22,2 C 64 % 1008,6 hPa 0,0 l/m 0 min 0 min 0,0 UV-I 167 W/m 2,6 km/h (1 Bft)
21.05.2014 16:56 23,3 C 22,2 C 63 % 1008,6 hPa 0,0 l/m 0 min 0 min 0,0 UV-I 149 W/m 2,6 km/h (1 Bft)
21.05.2014 16:58 23,3 C 22,2 C 64 % 1008,6 hPa 0,0 l/m 0 min 0 min 0,0 UV-I 125 W/m 0,0 km/h (0 Bft)
21.05.2014 17:00 23,2 C 22,2 C 65 % 1008,5 hPa 0,0 l/m 0 min 0 min 0,0 UV-I 116 W/m 0,0 km/h (0 Bft)
21.05.2014 17:02 23,2 C 21,7 C 64 % 1008,5 hPa 0,0 l/m 0 min 0 min 0,0 UV-I 114 W/m 2,6 km/h (1 Bft)
21.05.2014 17:06 23,0 C 21,7 C 64 % 1008,5 hPa 0,0 l/m 0 min 0 min 0,0 UV-I 130 W/m 2,6 km/h (1 Bft)
21.05.2014 17:08 23,0 C 21,7 C 64 % 1008,5 hPa 0,0 l/m 0 min 0 min 0,0 UV-I 151 W/m 18,0 km/h (3 Bft)
21.05.2014 17:10 23,0 C 21,7 C 63 % 1008,5 hPa 0,0 l/m 0 min 0 min 0,0 UV-I 186 W/m 7,7 km/h (2 Bft)
21.05.2014 17:12 23,1 C 21,7 C 64 % 1008,5 hPa 0,0 l/m 0 min 0 min 0,5 UV-I 211 W/m 2,6 km/h (1 Bft)
21.05.2014 17:14 23,1 C 22,2 C 65 % 1008,6 hPa 0,0 l/m 0 min 0 min 0,6 UV-I 236 W/m 0,0 km/h (0 Bft)
21.05.2014 17:16 23,2 C 22,2 C 63 % 1008,5 hPa 0,0 l/m 0 min 0 min 0,7 UV-I 264 W/m 7,7 km/h (2 Bft)
21.05.2014 17:18 23,3 C 22,8 C 63 % 1008,4 hPa 0,0 l/m 0 min 0 min 0,6 UV-I 244 W/m 0,0 km/h (0 Bft)
21.05.2014 17:20 23,4 C 22,8 C 64 % 1008,4 hPa 0,0 l/m 0 min 0 min 0,5 UV-I 225 W/m 0,0 km/h (0 Bft)
21.05.2014 17:22 23,4 C 22,8 C 63 % 1008,4 hPa 0,0 l/m 0 min 0 min 0,0 UV-I 200 W/m 7,7 km/h (2 Bft)
21.05.2014 17:24 23,5 C 22,8 C 63 % 1008,4 hPa 0,0 l/m 0 min 0 min 0,0 UV-I 186 W/m 0,0 km/h (0 Bft)
21.05.2014 17:26 23,5 C 22,8 C 64 % 1008,4 hPa 0,0 l/m 0 min 0 min 0,0 UV-I 174 W/m 0,0 km/h (0 Bft)
21.05.2014 17:28 23,4 C 22,8 C 64 % 1008,4 hPa 0,0 l/m 0 min 0 min 0,0 UV-I 155 W/m 7,7 km/h (2 Bft)
21.05.2014 17:30 23,4 C 22,2 C 64 % 1008,3 hPa 0,0 l/m 0 min 0 min 0,0 UV-I 151 W/m 0,0 km/h (0 Bft)
21.05.2014 17:32 23,3 C 22,2 C 64 % 1008,3 hPa 0,0 l/m 0 min 0 min 0,0 UV-I 158 W/m 2,6 km/h (1 Bft)
21.05.2014 17:34 23,3 C 22,2 C 64 % 1008,2 hPa 0,0 l/m 0 min 0 min 0,0 UV-I 176 W/m 7,7 km/h (2 Bft)
21.05.2014 17:36 23,3 C 22,2 C 65 % 1008,2 hPa 0,0 l/m 0 min 0 min 0,0 UV-I 190 W/m 2,6 km/h (1 Bft)
21.05.2014 17:38 23,3 C 22,2 C 65 % 1008,2 hPa 0,0 l/m 0 min 0 min 0,0 UV-I 216 W/m 0,0 km/h (0 Bft)
21.05.2014 17:40 23,3 C 22,2 C 65 % 1008,1 hPa 0,0 l/m 0 min 0 min 0,5 UV-I 237 W/m 2,6 km/h (1 Bft)
21.05.2014 17:42 23,3 C 22,8 C 65 % 1008,0 hPa 0,0 l/m 0 min 0 min 0,6 UV-I 250 W/m 0,0 km/h (0 Bft)
21.05.2014 17:44 23,3 C 22,8 C 65 % 1008,0 hPa 0,0 l/m 0 min 0 min 0,6 UV-I 258 W/m 5,1 km/h (1 Bft)
21.05.2014 17:46 23,4 C 22,8 C 65 % 1007,9 hPa 0,0 l/m 0 min 0 min 0,6 UV-I 248 W/m 2,6 km/h (1 Bft)
21.05.2014 17:48 23,4 C 22,8 C 65 % 1007,9 hPa 0,0 l/m 2 min 0 min 0,7 UV-I 299 W/m 2,6 km/h (1 Bft)
21.05.2014 17:50 23,5 C 22,8 C 65 % 1007,9 hPa 0,0 l/m 2 min 0 min 0,7 UV-I 302 W/m 2,6 km/h (1 Bft)
21.05.2014 17:52 23,6 C 22,8 C 65 % 1007,8 hPa 0,0 l/m 2 min 0 min 0,7 UV-I 295 W/m 0,0 km/h (0 Bft)
21.05.2014 17:54 23,6 C 22,8 C 64 % 1007,8 hPa 0,0 l/m 2 min 0 min 0,6 UV-I 285 W/m 7,7 km/h (2 Bft)
21.05.2014 17:56 23,7 C 22,8 C 64 % 1007,8 hPa 0,0 l/m 0 min 0 min 0,6 UV-I 243 W/m 0,0 km/h (0 Bft)
21.05.2014 17:58 23,7 C 22,8 C 64 % 1007,8 hPa 0,0 l/m 0 min 0 min 0,5 UV-I 229 W/m 0,0 km/h (0 Bft)
21.05.2014 18:00 23,7 C 22,8 C 65 % 1007,7 hPa 0,0 l/m 0 min 0 min 0,5 UV-I 230 W/m 2,6 km/h (1 Bft)
21.05.2014 18:02 23,8 C 22,8 C 65 % 1007,7 hPa 0,0 l/m 0 min 0 min 0,5 UV-I 213 W/m 2,6 km/h (1 Bft)
21.05.2014 18:06 23,8 C 22,8 C 64 % 1007,7 hPa 0,0 l/m 0 min 0 min 0,5 UV-I 199 W/m 0,0 km/h (0 Bft)
21.05.2014 18:08 23,7 C 22,8 C 65 % 1007,7 hPa 0,0 l/m 0 min 0 min 0,0 UV-I 200 W/m 0,0 km/h (0 Bft)
21.05.2014 18:10 23,7 C 22,8 C 64 % 1007,6 hPa 0,0 l/m 0 min 0 min 0,0 UV-I 202 W/m 0,0 km/h (0 Bft)
21.05.2014 18:12 23,7 C 22,8 C 64 % 1007,4 hPa 0,0 l/m 0 min 0 min 0,0 UV-I 207 W/m 5,1 km/h (1 Bft)
21.05.2014 18:14 23,8 C 22,8 C 65 % 1007,4 hPa 0,0 l/m 2 min 0 min 0,0 UV-I 260 W/m 0,0 km/h (0 Bft)
21.05.2014 18:16 23,8 C 22,8 C 66 % 1007,4 hPa 0,0 l/m 0 min 0 min 0,0 UV-I 227 W/m 0,0 km/h (0 Bft)
21.05.2014 18:18 23,9 C 22,8 C 64 % 1007,3 hPa 0,0 l/m 0 min 0 min 0,5 UV-I 227 W/m 2,6 km/h (1 Bft)
21.05.2014 18:20 23,9 C 22,8 C 64 % 1007,3 hPa 0,0 l/m 0 min 0 min 0,0 UV-I 211 W/m 7,7 km/h (2 Bft)
21.05.2014 18:22 23,9 C 22,8 C 65 % 1007,2 hPa 0,0 l/m 0 min 0 min 0,0 UV-I 207 W/m 2,6 km/h (1 Bft)
21.05.2014 18:24 24,0 C 22,8 C 65 % 1007,2 hPa 0,0 l/m 0 min 0 min 0,0 UV-I 193 W/m 2,6 km/h (1 Bft)
21.05.2014 18:26 24,0 C 22,8 C 65 % 1007,1 hPa 0,0 l/m 0 min 0 min 0,0 UV-I 188 W/m 2,6 km/h (1 Bft)
21.05.2014 18:28 24,0 C 22,8 C 64 % 1007,1 hPa 0,0 l/m 0 min 0 min 0,0 UV-I 186 W/m 12,9 km/h (3 Bft)
21.05.2014 18:30 23,9 C 22,8 C 65 % 1007,1 hPa 0,0 l/m 0 min 0 min 0,0 UV-I 192 W/m 12,9 km/h (3 Bft)
21.05.2014 18:32 23,9 C 22,8 C 64 % 1007,1 hPa 0,0 l/m 0 min 0 min 0,0 UV-I 181 W/m 0,0 km/h (0 Bft)
21.05.2014 18:34 23,9 C 22,8 C 65 % 1007,1 hPa 0,0 l/m 0 min 0 min 0,0 UV-I 176 W/m 2,6 km/h (1 Bft)
21.05.2014 18:36 24,0 C 22,8 C 65 % 1007,1 hPa 0,0 l/m 0 min 0 min 0,0 UV-I 172 W/m 2,6 km/h (1 Bft)
21.05.2014 18:38 24,0 C 22,8 C 65 % 1007,0 hPa 0,0 l/m 0 min 0 min 0,0 UV-I 169 W/m 0,0 km/h (0 Bft)
21.05.2014 18:40 24,0 C 22,8 C 67 % 1007,0 hPa 0,0 l/m 0 min 0 min 0,0 UV-I 167 W/m 2,6 km/h (1 Bft)
21.05.2014 18:42 23,9 C 22,8 C 65 % 1006,9 hPa 0,0 l/m 0 min 0 min 0,0 UV-I 165 W/m 7,7 km/h (2 Bft)
21.05.2014 18:44 23,9 C 22,8 C 65 % 1006,9 hPa 0,0 l/m 0 min 0 min 0,0 UV-I 163 W/m 5,1 km/h (1 Bft)
21.05.2014 18:46 24,0 C 22,8 C 65 % 1006,9 hPa 0,0 l/m 0 min 0 min 0,0 UV-I 162 W/m 0,0 km/h (0 Bft)
21.05.2014 18:48 24,0 C 22,8 C 64 % 1006,8 hPa 0,0 l/m 0 min 0 min 0,0 UV-I 162 W/m 10,3 km/h (2 Bft)
21.05.2014 18:50 24,1 C 22,8 C 65 % 1006,9 hPa 0,0 l/m 0 min 0 min 0,0 UV-I 162 W/m 2,6 km/h (1 Bft)
21.05.2014 18:52 24,1 C 22,8 C 64 % 1006,8 hPa 0,0 l/m 0 min 0 min 0,0 UV-I 158 W/m 10,3 km/h (2 Bft)
21.05.2014 18:54 24,1 C 22,8 C 65 % 1006,8 hPa 0,0 l/m 0 min 0 min 0,0 UV-I 151 W/m 5,1 km/h (1 Bft)
21.05.2014 18:56 24,0 C 22,8 C 65 % 1006,8 hPa 0,0 l/m 0 min 0 min 0,0 UV-I 139 W/m 2,6 km/h (1 Bft)
21.05.2014 18:58 24,0 C 22,8 C 64 % 1006,8 hPa 0,0 l/m 0 min 0 min 0,0 UV-I 132 W/m 12,9 km/h (3 Bft)
21.05.2014 19:00 24,0 C 22,8 C 64 % 1006,8 hPa 0,0 l/m 0 min 0 min 0,0 UV-I 125 W/m 7,7 km/h (2 Bft)
21.05.2014 19:02 24,1 C 22,8 C 64 % 1006,7 hPa 0,0 l/m 0 min 0 min 0,0 UV-I 118 W/m 7,7 km/h (2 Bft)
21.05.2014 19:06 24,1 C 22,2 C 65 % 1006,6 hPa 0,0 l/m 0 min 0 min 0,0 UV-I 97 W/m 12,9 km/h (3 Bft)
21.05.2014 19:08 24,0 C 22,2 C 65 % 1006,7 hPa 0,0 l/m 0 min 0 min 0,0 UV-I 88 W/m 2,6 km/h (1 Bft)
21.05.2014 19:10 24,0 C 22,2 C 65 % 1006,6 hPa 0,0 l/m 0 min 0 min 0,0 UV-I 79 W/m 2,6 km/h (1 Bft)
21.05.2014 19:12 24,0 C 22,2 C 65 % 1006,6 hPa 0,0 l/m 0 min 0 min 0,0 UV-I 70 W/m 2,6 km/h (1 Bft)
21.05.2014 19:14 23,9 C 22,2 C 65 % 1006,6 hPa 0,0 l/m 0 min 0 min 0,0 UV-I 65 W/m 0,0 km/h (0 Bft)
21.05.2014 19:16 23,9 C 22,2 C 65 % 1006,7 hPa 0,0 l/m 0 min 0 min 0,0 UV-I 58 W/m 2,6 km/h (1 Bft)
21.05.2014 19:18 23,8 C 21,7 C 66 % 1006,7 hPa 0,0 l/m 0 min 0 min 0,0 UV-I 46 W/m 2,6 km/h (1 Bft)
21.05.2014 19:20 23,8 C 21,7 C 66 % 1006,7 hPa 0,0 l/m 0 min 0 min 0,0 UV-I 39 W/m 2,6 km/h (1 Bft)
21.05.2014 19:22 23,8 C 21,7 C 66 % 1006,7 hPa 0,0 l/m 0 min 0 min 0,0 UV-I 35 W/m 0,0 km/h (0 Bft)
21.05.2014 19:24 23,7 C 21,7 C 66 % 1006,7 hPa 0,0 l/m 0 min 0 min 0,0 UV-I 33 W/m 0,0 km/h (0 Bft)
21.05.2014 19:26 23,7 C 21,7 C 66 % 1006,7 hPa 0,0 l/m 0 min 0 min 0,0 UV-I 40 W/m 0,0 km/h (0 Bft)
21.05.2014 19:28 23,7 C 21,1 C 67 % 1006,6 hPa 0,0 l/m 0 min 0 min 0,0 UV-I 47 W/m 0,0 km/h (0 Bft)
21.05.2014 19:30 23,6 C 21,1 C 67 % 1006,5 hPa 0,0 l/m 0 min 0 min 0,0 UV-I 63 W/m 0,0 km/h (0 Bft)
21.05.2014 19:32 23,6 C 21,1 C 67 % 1006,6 hPa 0,0 l/m 0 min 0 min 0,0 UV-I 69 W/m 0,0 km/h (0 Bft)
21.05.2014 19:34 23,6 C 21,1 C 67 % 1006,5 hPa 0,0 l/m 0 min 0 min 0,0 UV-I 81 W/m 2,6 km/h (1 Bft)
21.05.2014 19:36 23,6 C 21,7 C 67 % 1006,6 hPa 0,0 l/m 0 min 0 min 0,0 UV-I 83 W/m 7,7 km/h (2 Bft)
21.05.2014 19:38 23,7 C 21,7 C 67 % 1006,6 hPa 0,0 l/m 0 min 0 min 0,0 UV-I 79 W/m 0,0 km/h (0 Bft)
21.05.2014 19:40 23,7 C 21,7 C 67 % 1006,6 hPa 0,0 l/m 0 min 0 min 0,0 UV-I 76 W/m 2,6 km/h (1 Bft)
21.05.2014 19:42 23,7 C 21,7 C 67 % 1006,5 hPa 0,0 l/m 0 min 0 min 0,0 UV-I 72 W/m 0,0 km/h (0 Bft)
21.05.2014 19:44 23,6 C 21,7 C 68 % 1006,5 hPa 0,0 l/m 0 min 0 min 0,0 UV-I 69 W/m 0,0 km/h (0 Bft)
21.05.2014 19:46 23,6 C 21,7 C 68 % 1006,4 hPa 0,0 l/m 0 min 0 min 0,0 UV-I 63 W/m 0,0 km/h (0 Bft)
21.05.2014 19:48 23,5 C 21,1 C 68 % 1006,4 hPa 0,0 l/m 0 min 0 min 0,0 UV-I 54 W/m 0,0 km/h (0 Bft)
21.05.2014 19:50 23,5 C 21,1 C 68 % 1006,4 hPa 0,0 l/m 0 min 0 min 0,0 UV-I 51 W/m 2,6 km/h (1 Bft)
21.05.2014 19:52 23,5 C 21,1 C 68 % 1006,4 hPa 0,0 l/m 0 min 0 min 0,0 UV-I 47 W/m 0,0 km/h (0 Bft)
21.05.2014 19:54 23,4 C 21,1 C 68 % 1006,4 hPa 0,0 l/m 0 min 0 min 0,0 UV-I 42 W/m 2,6 km/h (1 Bft)
21.05.2014 19:56 23,4 C 21,1 C 67 % 1006,4 hPa 0,0 l/m 0 min 0 min 0,0 UV-I 37 W/m 0,0 km/h (0 Bft)
21.05.2014 19:58 23,4 C 20,6 C 68 % 1006,4 hPa 0,0 l/m 0 min 0 min 0,0 UV-I 32 W/m 0,0 km/h (0 Bft)
21.05.2014 20:00 23,4 C 20,6 C 67 % 1006,4 hPa 0,0 l/m 0 min 0 min 0,0 UV-I 28 W/m 0,0 km/h (0 Bft)
21.05.2014 20:02 23,4 C 20,6 C 68 % 1006,4 hPa 0,0 l/m 0 min 0 min 0,0 UV-I 26 W/m 0,0 km/h (0 Bft)
21.05.2014 20:06 23,4 C 20,6 C 66 % 1006,4 hPa 0,0 l/m 0 min 0 min 0,0 UV-I 21 W/m 0,0 km/h (0 Bft)
21.05.2014 20:08 23,4 C 20,6 C 66 % 1006,4 hPa 0,0 l/m 0 min 0 min 0,0 UV-I 21 W/m 2,6 km/h (1 Bft)
21.05.2014 20:10 23,3 C 20,6 C 66 % 1006,4 hPa 0,0 l/m 0 min 0 min 0,0 UV-I 19 W/m 0,0 km/h (0 Bft)
21.05.2014 20:12 23,3 C 20,6 C 65 % 1006,5 hPa 0,0 l/m 0 min 0 min 0,0 UV-I 19 W/m 0,0 km/h (0 Bft)
21.05.2014 20:14 23,3 C 20,6 C 65 % 1006,4 hPa 0,0 l/m 0 min 0 min 0,0 UV-I 18 W/m 10,3 km/h (2 Bft)
21.05.2014 20:16 23,3 C 20,6 C 64 % 1006,4 hPa 0,0 l/m 0 min 0 min 0,0 UV-I 16 W/m 2,6 km/h (1 Bft)
21.05.2014 20:18 23,3 C 20,6 C 65 % 1006,4 hPa 0,0 l/m 0 min 0 min 0,0 UV-I 14 W/m 0,0 km/h (0 Bft)
21.05.2014 20:20 23,3 C 20,6 C 64 % 1006,4 hPa 0,0 l/m 0 min 0 min 0,0 UV-I 16 W/m 0,0 km/h (0 Bft)
21.05.2014 20:22 23,2 C 20,0 C 65 % 1006,3 hPa 0,0 l/m 0 min 0 min 0,0 UV-I 16 W/m 0,0 km/h (0 Bft)
21.05.2014 20:24 23,2 C 20,0 C 65 % 1006,3 hPa 0,0 l/m 0 min 0 min 0,0 UV-I 14 W/m 0,0 km/h (0 Bft)
21.05.2014 20:26 23,2 C 20,0 C 64 % 1006,3 hPa 0,0 l/m 0 min 0 min 0,0 UV-I 12 W/m 0,0 km/h (0 Bft)
21.05.2014 20:28 23,3 C 20,0 C 64 % 1006,3 hPa 0,0 l/m 0 min 0 min 0,0 UV-I 11 W/m 0,0 km/h (0 Bft)
21.05.2014 20:30 23,2 C 20,0 C 64 % 1006,3 hPa 0,0 l/m 0 min 0 min 0,0 UV-I 11 W/m 0,0 km/h (0 Bft)
21.05.2014 20:32 23,2 C 20,0 C 63 % 1006,3 hPa 0,0 l/m 0 min 0 min 0,0 UV-I 11 W/m 0,0 km/h (0 Bft)
21.05.2014 20:34 23,2 C 20,0 C 64 % 1006,3 hPa 0,0 l/m 0 min 0 min 0,0 UV-I 12 W/m 0,0 km/h (0 Bft)
21.05.2014 20:36 23,1 C 20,0 C 64 % 1006,3 hPa 0,0 l/m 0 min 0 min 0,0 UV-I 12 W/m 2,6 km/h (1 Bft)
21.05.2014 20:38 23,1 C 20,0 C 64 % 1006,3 hPa 0,0 l/m 0 min 0 min 0,0 UV-I 12 W/m 2,6 km/h (1 Bft)
21.05.2014 20:40 23,1 C 20,0 C 64 % 1006,3 hPa 0,0 l/m 0 min 0 min 0,0 UV-I 12 W/m 0,0 km/h (0 Bft)
21.05.2014 20:42 23,1 C 20,0 C 64 % 1006,3 hPa 0,0 l/m 0 min 0 min 0,0 UV-I 11 W/m 0,0 km/h (0 Bft)
21.05.2014 20:44 23,1 C 20,0 C 64 % 1006,3 hPa 0,0 l/m 0 min 0 min 0,0 UV-I 9 W/m 0,0 km/h (0 Bft)
21.05.2014 20:46 23,1 C 20,0 C 63 % 1006,3 hPa 0,0 l/m 0 min 0 min 0,0 UV-I 9 W/m 7,7 km/h (2 Bft)
21.05.2014 20:48 23,1 C 20,0 C 63 % 1006,3 hPa 0,0 l/m 0 min 0 min 0,0 UV-I 7 W/m 7,7 km/h (2 Bft)
21.05.2014 20:50 23,1 C 20,0 C 64 % 1006,3 hPa 0,0 l/m 0 min 0 min 0,0 UV-I 7 W/m 0,0 km/h (0 Bft)
21.05.2014 20:52 23,1 C 20,0 C 63 % 1006,3 hPa 0,0 l/m 0 min 0 min 0,0 UV-I 7 W/m 0,0 km/h (0 Bft)
21.05.2014 20:54 23,0 C 20,0 C 63 % 1006,2 hPa 0,0 l/m 0 min 0 min 0,0 UV-I 9 W/m 0,0 km/h (0 Bft)
21.05.2014 20:56 23,0 C 20,0 C 63 % 1006,2 hPa 0,0 l/m 0 min 0 min 0,0 UV-I 9 W/m 0,0 km/h (0 Bft)
21.05.2014 20:58 23,0 C 20,0 C 63 % 1006,2 hPa 0,0 l/m 0 min 0 min 0,0 UV-I 11 W/m 2,6 km/h (1 Bft)
21.05.2014 21:00 22,9 C 20,0 C 63 % 1006,2 hPa 0,0 l/m 0 min 0 min 0,0 UV-I 9 W/m 0,0 km/h (0 Bft)
21.05.2014 21:02 22,9 C 19,4 C 63 % 1006,2 hPa 0,0 l/m 0 min 0 min 0,0 UV-I 9 W/m 2,6 km/h (1 Bft)
21.05.2014 21:06 22,8 C 19,4 C 63 % 1006,2 hPa 0,0 l/m 0 min 0 min 0,0 UV-I 7 W/m 7,7 km/h (2 Bft)
21.05.2014 21:08 22,8 C 19,4 C 64 % 1006,2 hPa 0,0 l/m 0 min 0 min 0,0 UV-I 7 W/m 0,0 km/h (0 Bft)
21.05.2014 21:10 22,7 C 19,4 C 64 % 1006,2 hPa 0,0 l/m 0 min 0 min 0,0 UV-I 5 W/m 0,0 km/h (0 Bft)
21.05.2014 21:12 22,7 C 19,4 C 64 % 1006,2 hPa 0,0 l/m 0 min 0 min 0,0 UV-I 0 W/m 0,0 km/h (0 Bft)
21.05.2014 21:14 22,6 C 19,4 C 64 % 1006,2 hPa 0,0 l/m 0 min 0 min 0,0 UV-I 0 W/m 0,0 km/h (0 Bft)
21.05.2014 21:16 22,6 C 19,4 C 64 % 1006,1 hPa 0,0 l/m 0 min 0 min 0,0 UV-I 0 W/m 0,0 km/h (0 Bft)
21.05.2014 21:18 22,4 C 19,4 C 66 % 1006,1 hPa 0,0 l/m 0 min 0 min 0,0 UV-I 0 W/m 0,0 km/h (0 Bft)
21.05.2014 21:20 22,3 C 18,9 C 67 % 1006,1 hPa 0,0 l/m 0 min 0 min 0,0 UV-I 0 W/m 2,6 km/h (1 Bft)
21.05.2014 21:22 22,2 C 18,9 C 68 % 1006,1 hPa 0,0 l/m 0 min 0 min 0,0 UV-I 0 W/m 0,0 km/h (0 Bft)
21.05.2014 21:24 22,1 C 19,4 C 68 % 1006,1 hPa 0,0 l/m 0 min 0 min 0,0 UV-I 0 W/m 2,6 km/h (1 Bft)
21.05.2014 21:26 22,0 C 18,9 C 68 % 1006,1 hPa 0,0 l/m 0 min 0 min 0,0 UV-I 0 W/m 0,0 km/h (0 Bft)
21.05.2014 21:28 22,0 C 18,9 C 68 % 1006,1 hPa 0,0 l/m 0 min 0 min 0,0 UV-I 0 W/m 0,0 km/h (0 Bft)
21.05.2014 21:30 22,0 C 19,4 C 68 % 1006,2 hPa 0,0 l/m 0 min 0 min 0,0 UV-I 0 W/m 0,0 km/h (0 Bft)
21.05.2014 21:32 22,0 C 19,4 C 67 % 1006,3 hPa 0,0 l/m 0 min 0 min 0,0 UV-I 0 W/m 15,4 km/h (3 Bft)
21.05.2014 21:34 22,1 C 19,4 C 67 % 1006,3 hPa 0,0 l/m 0 min 0 min 0,0 UV-I 0 W/m 2,6 km/h (1 Bft)
21.05.2014 21:36 22,2 C 19,4 C 66 % 1006,3 hPa 0,0 l/m 0 min 0 min 0,0 UV-I 0 W/m 0,0 km/h (0 Bft)
21.05.2014 21:38 22,3 C 20,0 C 66 % 1006,3 hPa 0,0 l/m 0 min 0 min 0,0 UV-I 0 W/m 7,7 km/h (2 Bft)
21.05.2014 21:40 22,4 C 20,0 C 65 % 1006,3 hPa 0,0 l/m 0 min 2 min 0,0 UV-I 0 W/m 7,7 km/h (2 Bft)
21.05.2014 21:42 22,6 C 20,0 C 64 % 1006,3 hPa 0,0 l/m 0 min 2 min 0,0 UV-I 0 W/m 12,9 km/h (3 Bft)
21.05.2014 21:44 22,7 C 18,9 C 66 % 1006,3 hPa 0,0 l/m 0 min 2 min 0,0 UV-I 0 W/m 2,6 km/h (1 Bft)
21.05.2014 21:46 22,7 C 18,3 C 66 % 1006,4 hPa 0,0 l/m 0 min 2 min 0,0 UV-I 0 W/m 0,0 km/h (0 Bft)
21.05.2014 21:48 22,6 C 18,3 C 67 % 1006,4 hPa 0,0 l/m 0 min 2 min 0,0 UV-I 0 W/m 0,0 km/h (0 Bft)
21.05.2014 21:50 22,6 C 17,8 C 67 % 1006,4 hPa 0,0 l/m 0 min 2 min 0,0 UV-I 0 W/m 0,0 km/h (0 Bft)
21.05.2014 21:52 22,4 C 17,8 C 68 % 1006,4 hPa 0,0 l/m 0 min 2 min 0,0 UV-I 0 W/m 0,0 km/h (0 Bft)
21.05.2014 21:54 22,3 C 17,8 C 69 % 1006,4 hPa 0,0 l/m 0 min 0 min 0,0 UV-I 0 W/m 0,0 km/h (0 Bft)
21.05.2014 21:56 22,2 C 17,8 C 70 % 1006,4 hPa 0,0 l/m 0 min 0 min 0,0 UV-I 0 W/m 0,0 km/h (0 Bft)
21.05.2014 21:58 22,0 C 17,8 C 72 % 1006,4 hPa 0,0 l/m 0 min 0 min 0,0 UV-I 0 W/m 0,0 km/h (0 Bft)
21.05.2014 22:00 21,8 C 17,8 C 72 % 1006,3 hPa 0,0 l/m 0 min 0 min 0,0 UV-I 0 W/m 0,0 km/h (0 Bft)
21.05.2014 22:02 21,7 C 17,8 C 74 % 1006,3 hPa 0,0 l/m 0 min 0 min 0,0 UV-I 0 W/m 0,0 km/h (0 Bft)
21.05.2014 22:06 21,5 C 17,8 C 72 % 1006,2 hPa 0,0 l/m 0 min 0 min 0,0 UV-I 0 W/m 0,0 km/h (0 Bft)
21.05.2014 22:08 21,5 C 17,8 C 73 % 1006,1 hPa 0,0 l/m 0 min 0 min 0,0 UV-I 0 W/m 0,0 km/h (0 Bft)
21.05.2014 22:10 21,6 C 17,8 C 72 % 1006,0 hPa 0,0 l/m 0 min 2 min 0,0 UV-I 0 W/m 0,0 km/h (0 Bft)
21.05.2014 22:12 21,6 C 17,8 C 73 % 1006,1 hPa 0,0 l/m 0 min 2 min 0,0 UV-I 0 W/m 0,0 km/h (0 Bft)
21.05.2014 22:14 21,6 C 17,8 C 72 % 1006,2 hPa 0,0 l/m 0 min 2 min 0,0 UV-I 0 W/m 0,0 km/h (0 Bft)
21.05.2014 22:16 21,6 C 17,8 C 71 % 1006,2 hPa 0,0 l/m 0 min 2 min 0,0 UV-I 0 W/m 0,0 km/h (0 Bft)
21.05.2014 22:18 21,6 C 17,2 C 72 % 1006,2 hPa 0,0 l/m 0 min 2 min 0,0 UV-I 0 W/m 0,0 km/h (0 Bft)
21.05.2014 22:20 21,6 C 17,2 C 72 % 1006,2 hPa 0,0 l/m 0 min 0 min 0,0 UV-I 0 W/m 0,0 km/h (0 Bft)
21.05.2014 22:22 21,5 C 17,2 C 72 % 1006,2 hPa 0,0 l/m 0 min 0 min 0,0 UV-I 0 W/m 0,0 km/h (0 Bft)
21.05.2014 22:24 21,5 C 17,2 C 71 % 1006,2 hPa 0,0 l/m 0 min 0 min 0,0 UV-I 0 W/m 0,0 km/h (0 Bft)
21.05.2014 22:26 21,5 C 17,2 C 71 % 1006,2 hPa 0,0 l/m 0 min 2 min 0,0 UV-I 0 W/m 0,0 km/h (0 Bft)
21.05.2014 22:28 21,6 C 17,2 C 71 % 1006,1 hPa 0,0 l/m 0 min 2 min 0,0 UV-I 0 W/m 0,0 km/h (0 Bft)
21.05.2014 22:30 21,6 C 17,2 C 71 % 1006,0 hPa 0,0 l/m 0 min 2 min 0,0 UV-I 0 W/m 5,1 km/h (1 Bft)
21.05.2014 22:32 21,6 C 17,2 C 72 % 1006,0 hPa 0,0 l/m 0 min 2 min 0,0 UV-I 0 W/m 5,1 km/h (1 Bft)
21.05.2014 22:34 21,5 C 17,2 C 72 % 1005,9 hPa 0,0 l/m 0 min 2 min 0,0 UV-I 0 W/m 2,6 km/h (1 Bft)
21.05.2014 22:36 21,5 C 17,2 C 71 % 1005,7 hPa 0,0 l/m 0 min 2 min 0,0 UV-I 0 W/m 2,6 km/h (1 Bft)
21.05.2014 22:38 21,6 C 17,2 C 71 % 1005,6 hPa 0,0 l/m 0 min 2 min 0,0 UV-I 0 W/m 7,7 km/h (2 Bft)
21.05.2014 22:40 21,7 C 17,2 C 70 % 1005,3 hPa 0,0 l/m 0 min 0 min 0,0 UV-I 0 W/m 12,9 km/h (3 Bft)
21.05.2014 22:42 21,7 C 17,8 C 71 % 1005,0 hPa 0,0 l/m 0 min 0 min 0,0 UV-I 0 W/m 7,7 km/h (2 Bft)
21.05.2014 22:44 21,7 C 18,9 C 70 % 1004,8 hPa 0,0 l/m 0 min 0 min 0,0 UV-I 0 W/m 12,9 km/h (3 Bft)
21.05.2014 22:46 21,8 C 18,9 C 69 % 1004,8 hPa 0,0 l/m 0 min 2 min 0,0 UV-I 0 W/m 10,3 km/h (2 Bft)
21.05.2014 22:48 21,8 C 18,9 C 69 % 1004,8 hPa 0,0 l/m 0 min 0 min 0,0 UV-I 0 W/m 15,4 km/h (3 Bft)
21.05.2014 22:50 21,8 C 18,9 C 69 % 1004,7 hPa 0,0 l/m 0 min 2 min 0,0 UV-I 0 W/m 18,0 km/h (3 Bft)
21.05.2014 22:52 21,9 C 19,4 C 68 % 1004,6 hPa 0,0 l/m 0 min 0 min 0,0 UV-I 0 W/m 12,9 km/h (3 Bft)
21.05.2014 22:54 21,9 C 18,9 C 68 % 1004,6 hPa 0,0 l/m 0 min 2 min 0,0 UV-I 0 W/m 2,6 km/h (1 Bft)
21.05.2014 22:56 21,9 C 18,9 C 68 % 1004,7 hPa 0,0 l/m 0 min 2 min 0,0 UV-I 0 W/m 12,9 km/h (3 Bft)
21.05.2014 22:58 22,0 C 18,9 C 68 % 1004,8 hPa 0,0 l/m 0 min 2 min 0,0 UV-I 0 W/m 0,0 km/h (0 Bft)
21.05.2014 23:00 22,0 C 18,9 C 68 % 1004,7 hPa 0,0 l/m 0 min 0 min 0,0 UV-I 0 W/m 7,7 km/h (2 Bft)
21.05.2014 23:02 22,0 C 18,9 C 67 % 1004,5 hPa 0,0 l/m 0 min 0 min 0,0 UV-I 0 W/m 2,6 km/h (1 Bft)
21.05.2014 23:06 21,9 C 18,9 C 67 % 1003,9 hPa 0,0 l/m 0 min 0 min 0,0 UV-I 0 W/m 7,7 km/h (2 Bft)
21.05.2014 23:08 21,9 C 19,4 C 67 % 1003,6 hPa 0,0 l/m 0 min 0 min 0,0 UV-I 0 W/m 15,4 km/h (3 Bft)
21.05.2014 23:10 21,9 C 19,4 C 66 % 1003,7 hPa 0,0 l/m 0 min 0 min 0,0 UV-I 0 W/m 12,9 km/h (3 Bft)
21.05.2014 23:12 22,0 C 20,0 C 65 % 1003,8 hPa 0,0 l/m 0 min 0 min 0,0 UV-I 0 W/m 18,0 km/h (3 Bft)
21.05.2014 23:14 22,1 C 20,0 C 65 % 1003,8 hPa 0,0 l/m 0 min 0 min 0,0 UV-I 0 W/m 20,6 km/h (4 Bft)
21.05.2014 23:16 22,2 C 20,0 C 64 % 1003,7 hPa 0,0 l/m 0 min 0 min 0,0 UV-I 0 W/m 12,9 km/h (3 Bft)
21.05.2014 23:18 22,2 C 20,0 C 64 % 1003,6 hPa 0,0 l/m 0 min 0 min 0,0 UV-I 0 W/m 15,4 km/h (3 Bft)
21.05.2014 23:20 22,3 C 20,0 C 64 % 1003,6 hPa 0,0 l/m 0 min 0 min 0,0 UV-I 0 W/m 23,2 km/h (4 Bft)
21.05.2014 23:22 22,3 C 20,0 C 64 % 1003,4 hPa 0,0 l/m 0 min 0 min 0,0 UV-I 0 W/m 18,0 km/h (3 Bft)
21.05.2014 23:24 22,3 C 20,0 C 64 % 1003,4 hPa 0,0 l/m 0 min 0 min 0,0 UV-I 0 W/m 18,0 km/h (3 Bft)
21.05.2014 23:26 22,4 C 20,0 C 63 % 1003,4 hPa 0,0 l/m 0 min 0 min 0,0 UV-I 0 W/m 18,0 km/h (3 Bft)
21.05.2014 23:28 22,4 C 20,0 C 63 % 1003,5 hPa 0,0 l/m 0 min 0 min 0,0 UV-I 0 W/m 15,4 km/h (3 Bft)
21.05.2014 23:30 22,4 C 20,0 C 63 % 1003,5 hPa 0,0 l/m 0 min 0 min 0,0 UV-I 0 W/m 18,0 km/h (3 Bft)
21.05.2014 23:32 22,5 C 20,0 C 63 % 1003,5 hPa 0,0 l/m 0 min 0 min 0,0 UV-I 0 W/m 18,0 km/h (3 Bft)
21.05.2014 23:34 22,5 C 20,0 C 62 % 1003,4 hPa 0,0 l/m 0 min 0 min 0,0 UV-I 0 W/m 23,2 km/h (4 Bft)
21.05.2014 23:36 22,6 C 20,0 C 62 % 1003,4 hPa 0,0 l/m 0 min 0 min 0,0 UV-I 0 W/m 12,9 km/h (3 Bft)
21.05.2014 23:38 22,6 C 20,0 C 62 % 1003,4 hPa 0,0 l/m 0 min 0 min 0,0 UV-I 0 W/m 12,9 km/h (3 Bft)
21.05.2014 23:40 22,6 C 20,0 C 62 % 1003,4 hPa 0,0 l/m 0 min 0 min 0,0 UV-I 0 W/m 10,3 km/h (2 Bft)
21.05.2014 23:42 22,6 C 20,0 C 62 % 1003,4 hPa 0,0 l/m 0 min 0 min 0,0 UV-I 0 W/m 15,4 km/h (3 Bft)
21.05.2014 23:44 22,6 C 20,0 C 62 % 1003,4 hPa 0,0 l/m 0 min 0 min 0,0 UV-I 0 W/m 2,6 km/h (1 Bft)
21.05.2014 23:46 22,6 C 20,0 C 62 % 1003,3 hPa 0,0 l/m 0 min 0 min 0,0 UV-I 0 W/m 20,6 km/h (4 Bft)
21.05.2014 23:48 22,6 C 20,0 C 62 % 1003,3 hPa 0,0 l/m 0 min 0 min 0,0 UV-I 0 W/m 10,3 km/h (2 Bft)
21.05.2014 23:50 22,6 C 20,0 C 62 % 1003,4 hPa 0,0 l/m 0 min 0 min 0,0 UV-I 0 W/m 7,7 km/h (2 Bft)
21.05.2014 23:52 22,6 C 20,0 C 62 % 1003,3 hPa 0,0 l/m 0 min 0 min 0,0 UV-I 0 W/m 5,1 km/h (1 Bft)
21.05.2014 23:54 22,6 C 20,0 C 62 % 1003,4 hPa 0,0 l/m 0 min 0 min 0,0 UV-I 0 W/m 12,9 km/h (3 Bft)
21.05.2014 23:56 22,6 C 20,0 C 61 % 1003,3 hPa 0,0 l/m 0 min 0 min 0,0 UV-I 0 W/m 12,9 km/h (3 Bft)
21.05.2014 23:58 22,6 C 20,0 C 61 % 1003,2 hPa 0,0 l/m 0 min 0 min 0,0 UV-I 0 W/m 10,3 km/h (2 Bft)
_ Min-Zeit 06:16 04:46 15:26 23:58 - - - - - 00:00
Minimum _ 14,9 C 13,3 C 61 % 1003,2 hPa - - - - - 0,0 km/h (0 Bft)
_ Max-Zeit 18:50 12:42 05:24 09:34 00:00 06:48 07:52 12:38 12:40 12:52
Maximum _ 24,1 C 24,4 C 89 % 1012,5 hPa 0,0 l/m 2 min 2 min 3,9 UV-I 835 W/m 28,3 km/h
S (4 Bft)
Durchschnitt _ 20,1 C 18,6 C 73 % 1010,0 hPa #0,0 l/m #54 min. #1:28 h 1,1 UV-I 183 W/m 4,5 km/h (1 Bft)
© 2014 W. Hausmann